<?xml version="1.0" encoding="UTF-8" standalone="no" ?>
<gpx xmlns="http://www.topografix.com/GPX/1/1" xmlns:xsi="http://www.w3.org/2001/XMLSchema-instance" xsi:schemaLocation="http://www.topografix.com/GPX/1/1 http://www.topografix.com/GPX/1/1/gpx.xsd" version="1.1" creator="VisuGPX - https://www.visugpx.com">
  <metadata>
    <name>VILLECROZE SAINT VICTOR</name>
    <desc><![CDATA[Cascade de paysages à partir de la chapelle saint Victor avec vues sur Tourtour]]></desc>
  </metadata>
  <trk>
    <name><![CDATA[Tracé actuel: 11 OCT 2016 13:51]]></name>
    <trkseg>
      <trkpt lat="43.58105" lon="6.27035">
        <ele>351.98</ele>
        <time>2016-10-11T11:51:03Z</time>
      </trkpt>
      <trkpt lat="43.58111" lon="6.27038">
        <ele>351.02</ele>
        <time>2016-10-11T11:51:04Z</time>
      </trkpt>
      <trkpt lat="43.58144" lon="6.2706">
        <ele>351.5</ele>
        <time>2016-10-11T11:51:21Z</time>
      </trkpt>
      <trkpt lat="43.58146" lon="6.27062">
        <ele>352.94</ele>
        <time>2016-10-11T11:51:29Z</time>
      </trkpt>
      <trkpt lat="43.58141" lon="6.27056">
        <ele>351.02</ele>
        <time>2016-10-11T11:51:45Z</time>
      </trkpt>
      <trkpt lat="43.5812" lon="6.27031">
        <ele>351.02</ele>
        <time>2016-10-11T11:52:06Z</time>
      </trkpt>
      <trkpt lat="43.58111" lon="6.27037">
        <ele>348.13</ele>
        <time>2016-10-11T11:52:21Z</time>
      </trkpt>
      <trkpt lat="43.5811" lon="6.27035">
        <ele>347.65</ele>
        <time>2016-10-11T11:52:25Z</time>
      </trkpt>
      <trkpt lat="43.5811" lon="6.2703">
        <ele>347.65</ele>
        <time>2016-10-11T11:52:28Z</time>
      </trkpt>
      <trkpt lat="43.58108" lon="6.27026">
        <ele>345.25</ele>
        <time>2016-10-11T11:52:33Z</time>
      </trkpt>
      <trkpt lat="43.58098" lon="6.27023">
        <ele>343.33</ele>
        <time>2016-10-11T11:52:46Z</time>
      </trkpt>
      <trkpt lat="43.58097" lon="6.27014">
        <ele>343.81</ele>
        <time>2016-10-11T11:52:58Z</time>
      </trkpt>
      <trkpt lat="43.58096" lon="6.27005">
        <ele>344.77</ele>
        <time>2016-10-11T11:53:08Z</time>
      </trkpt>
      <trkpt lat="43.58096" lon="6.27001">
        <ele>344.77</ele>
        <time>2016-10-11T11:53:11Z</time>
      </trkpt>
      <trkpt lat="43.58096" lon="6.26996">
        <ele>344.77</ele>
        <time>2016-10-11T11:53:15Z</time>
      </trkpt>
      <trkpt lat="43.58091" lon="6.26984">
        <ele>343.81</ele>
        <time>2016-10-11T11:53:27Z</time>
      </trkpt>
      <trkpt lat="43.58091" lon="6.26977">
        <ele>341.41</ele>
        <time>2016-10-11T11:53:38Z</time>
      </trkpt>
      <trkpt lat="43.58089" lon="6.26966">
        <ele>339.96</ele>
        <time>2016-10-11T11:53:50Z</time>
      </trkpt>
      <trkpt lat="43.58086" lon="6.26957">
        <ele>338.04</ele>
        <time>2016-10-11T11:53:59Z</time>
      </trkpt>
      <trkpt lat="43.58082" lon="6.26946">
        <ele>336.6</ele>
        <time>2016-10-11T11:54:09Z</time>
      </trkpt>
      <trkpt lat="43.58074" lon="6.26925">
        <ele>334.68</ele>
        <time>2016-10-11T11:54:25Z</time>
      </trkpt>
      <trkpt lat="43.58073" lon="6.26915">
        <ele>333.71</ele>
        <time>2016-10-11T11:54:33Z</time>
      </trkpt>
      <trkpt lat="43.58069" lon="6.26901">
        <ele>332.27</ele>
        <time>2016-10-11T11:54:44Z</time>
      </trkpt>
      <trkpt lat="43.58067" lon="6.26898">
        <ele>332.27</ele>
        <time>2016-10-11T11:54:47Z</time>
      </trkpt>
      <trkpt lat="43.58067" lon="6.26889">
        <ele>331.31</ele>
        <time>2016-10-11T11:54:54Z</time>
      </trkpt>
      <trkpt lat="43.58065" lon="6.26874">
        <ele>330.83</ele>
        <time>2016-10-11T11:55:05Z</time>
      </trkpt>
      <trkpt lat="43.58064" lon="6.2687">
        <ele>330.35</ele>
        <time>2016-10-11T11:55:08Z</time>
      </trkpt>
      <trkpt lat="43.58058" lon="6.2686">
        <ele>329.39</ele>
        <time>2016-10-11T11:55:17Z</time>
      </trkpt>
      <trkpt lat="43.58051" lon="6.26839">
        <ele>327.47</ele>
        <time>2016-10-11T11:55:33Z</time>
      </trkpt>
      <trkpt lat="43.58048" lon="6.26829">
        <ele>326.5</ele>
        <time>2016-10-11T11:55:41Z</time>
      </trkpt>
      <trkpt lat="43.58046" lon="6.26822">
        <ele>326.02</ele>
        <time>2016-10-11T11:55:46Z</time>
      </trkpt>
      <trkpt lat="43.58044" lon="6.26811">
        <ele>324.58</ele>
        <time>2016-10-11T11:55:55Z</time>
      </trkpt>
      <trkpt lat="43.58042" lon="6.26803">
        <ele>324.1</ele>
        <time>2016-10-11T11:56:00Z</time>
      </trkpt>
      <trkpt lat="43.58041" lon="6.26789">
        <ele>322.66</ele>
        <time>2016-10-11T11:56:12Z</time>
      </trkpt>
      <trkpt lat="43.58035" lon="6.26766">
        <ele>321.22</ele>
        <time>2016-10-11T11:56:28Z</time>
      </trkpt>
      <trkpt lat="43.58029" lon="6.26757">
        <ele>320.74</ele>
        <time>2016-10-11T11:56:43Z</time>
      </trkpt>
      <trkpt lat="43.58029" lon="6.26755">
        <ele>320.74</ele>
        <time>2016-10-11T11:56:54Z</time>
      </trkpt>
      <trkpt lat="43.58031" lon="6.26741">
        <ele>320.26</ele>
        <time>2016-10-11T11:57:03Z</time>
      </trkpt>
      <trkpt lat="43.58037" lon="6.26717">
        <ele>319.78</ele>
        <time>2016-10-11T11:57:18Z</time>
      </trkpt>
      <trkpt lat="43.5804" lon="6.26699">
        <ele>319.78</ele>
        <time>2016-10-11T11:57:30Z</time>
      </trkpt>
      <trkpt lat="43.5804" lon="6.2668">
        <ele>319.3</ele>
        <time>2016-10-11T11:57:42Z</time>
      </trkpt>
      <trkpt lat="43.58039" lon="6.26676">
        <ele>319.3</ele>
        <time>2016-10-11T11:57:44Z</time>
      </trkpt>
      <trkpt lat="43.58041" lon="6.26658">
        <ele>319.78</ele>
        <time>2016-10-11T11:57:56Z</time>
      </trkpt>
      <trkpt lat="43.58039" lon="6.26634">
        <ele>320.74</ele>
        <time>2016-10-11T11:58:12Z</time>
      </trkpt>
      <trkpt lat="43.58036" lon="6.26613">
        <ele>321.22</ele>
        <time>2016-10-11T11:58:26Z</time>
      </trkpt>
      <trkpt lat="43.58038" lon="6.26592">
        <ele>321.7</ele>
        <time>2016-10-11T11:58:41Z</time>
      </trkpt>
      <trkpt lat="43.58041" lon="6.26583">
        <ele>321.7</ele>
        <time>2016-10-11T11:58:49Z</time>
      </trkpt>
      <trkpt lat="43.58056" lon="6.26568">
        <ele>322.18</ele>
        <time>2016-10-11T11:59:07Z</time>
      </trkpt>
      <trkpt lat="43.58072" lon="6.26568">
        <ele>323.62</ele>
        <time>2016-10-11T11:59:25Z</time>
      </trkpt>
      <trkpt lat="43.58082" lon="6.26561">
        <ele>325.54</ele>
        <time>2016-10-11T11:59:40Z</time>
      </trkpt>
      <trkpt lat="43.58091" lon="6.26556">
        <ele>327.47</ele>
        <time>2016-10-11T11:59:56Z</time>
      </trkpt>
      <trkpt lat="43.58102" lon="6.26559">
        <ele>329.39</ele>
        <time>2016-10-11T12:00:11Z</time>
      </trkpt>
      <trkpt lat="43.58111" lon="6.2656">
        <ele>330.83</ele>
        <time>2016-10-11T12:00:23Z</time>
      </trkpt>
      <trkpt lat="43.5812" lon="6.26557">
        <ele>332.75</ele>
        <time>2016-10-11T12:00:37Z</time>
      </trkpt>
      <trkpt lat="43.58129" lon="6.26558">
        <ele>333.71</ele>
        <time>2016-10-11T12:00:50Z</time>
      </trkpt>
      <trkpt lat="43.58135" lon="6.26564">
        <ele>334.68</ele>
        <time>2016-10-11T12:01:01Z</time>
      </trkpt>
      <trkpt lat="43.58139" lon="6.26573">
        <ele>336.12</ele>
        <time>2016-10-11T12:01:13Z</time>
      </trkpt>
      <trkpt lat="43.58142" lon="6.26574">
        <ele>337.56</ele>
        <time>2016-10-11T12:01:25Z</time>
      </trkpt>
      <trkpt lat="43.58149" lon="6.26582">
        <ele>338.52</ele>
        <time>2016-10-11T12:01:35Z</time>
      </trkpt>
      <trkpt lat="43.58154" lon="6.26578">
        <ele>338.52</ele>
        <time>2016-10-11T12:01:47Z</time>
      </trkpt>
      <trkpt lat="43.58158" lon="6.26577">
        <ele>339.96</ele>
        <time>2016-10-11T12:02:00Z</time>
      </trkpt>
      <trkpt lat="43.58163" lon="6.26581">
        <ele>340.44</ele>
        <time>2016-10-11T12:02:13Z</time>
      </trkpt>
      <trkpt lat="43.58171" lon="6.26585">
        <ele>341.89</ele>
        <time>2016-10-11T12:02:23Z</time>
      </trkpt>
      <trkpt lat="43.58184" lon="6.2658">
        <ele>342.85</ele>
        <time>2016-10-11T12:02:38Z</time>
      </trkpt>
      <trkpt lat="43.58185" lon="6.26579">
        <ele>343.33</ele>
        <time>2016-10-11T12:02:39Z</time>
      </trkpt>
      <trkpt lat="43.58194" lon="6.26569">
        <ele>344.29</ele>
        <time>2016-10-11T12:02:51Z</time>
      </trkpt>
      <trkpt lat="43.58199" lon="6.2656">
        <ele>346.21</ele>
        <time>2016-10-11T12:03:06Z</time>
      </trkpt>
      <trkpt lat="43.58202" lon="6.26553">
        <ele>348.13</ele>
        <time>2016-10-11T12:03:21Z</time>
      </trkpt>
      <trkpt lat="43.5821" lon="6.26542">
        <ele>349.1</ele>
        <time>2016-10-11T12:03:34Z</time>
      </trkpt>
      <trkpt lat="43.58215" lon="6.26528">
        <ele>350.06</ele>
        <time>2016-10-11T12:03:48Z</time>
      </trkpt>
      <trkpt lat="43.58216" lon="6.26515">
        <ele>351.02</ele>
        <time>2016-10-11T12:04:02Z</time>
      </trkpt>
      <trkpt lat="43.58218" lon="6.26502">
        <ele>351.98</ele>
        <time>2016-10-11T12:04:16Z</time>
      </trkpt>
      <trkpt lat="43.58217" lon="6.26487">
        <ele>352.94</ele>
        <time>2016-10-11T12:04:31Z</time>
      </trkpt>
      <trkpt lat="43.58217" lon="6.26478">
        <ele>354.38</ele>
        <time>2016-10-11T12:04:44Z</time>
      </trkpt>
      <trkpt lat="43.58217" lon="6.26461">
        <ele>356.31</ele>
        <time>2016-10-11T12:05:00Z</time>
      </trkpt>
      <trkpt lat="43.58214" lon="6.26449">
        <ele>357.27</ele>
        <time>2016-10-11T12:05:15Z</time>
      </trkpt>
      <trkpt lat="43.58214" lon="6.26439">
        <ele>358.71</ele>
        <time>2016-10-11T12:05:29Z</time>
      </trkpt>
      <trkpt lat="43.58218" lon="6.26427">
        <ele>360.63</ele>
        <time>2016-10-11T12:05:41Z</time>
      </trkpt>
      <trkpt lat="43.58222" lon="6.26424">
        <ele>360.63</ele>
        <time>2016-10-11T12:05:56Z</time>
      </trkpt>
      <trkpt lat="43.5822" lon="6.26422">
        <ele>360.63</ele>
        <time>2016-10-11T12:06:11Z</time>
      </trkpt>
      <trkpt lat="43.58219" lon="6.26421">
        <ele>360.15</ele>
        <time>2016-10-11T12:06:30Z</time>
      </trkpt>
      <trkpt lat="43.58219" lon="6.26422">
        <ele>360.15</ele>
        <time>2016-10-11T12:06:50Z</time>
      </trkpt>
      <trkpt lat="43.58219" lon="6.26421">
        <ele>359.67</ele>
        <time>2016-10-11T12:07:10Z</time>
      </trkpt>
      <trkpt lat="43.58219" lon="6.26421">
        <ele>359.67</ele>
        <time>2016-10-11T12:07:37Z</time>
      </trkpt>
      <trkpt lat="43.58219" lon="6.2642">
        <ele>359.67</ele>
        <time>2016-10-11T12:07:59Z</time>
      </trkpt>
      <trkpt lat="43.5822" lon="6.2642">
        <ele>359.67</ele>
        <time>2016-10-11T12:08:23Z</time>
      </trkpt>
      <trkpt lat="43.58221" lon="6.26415">
        <ele>359.19</ele>
        <time>2016-10-11T12:08:27Z</time>
      </trkpt>
      <trkpt lat="43.58222" lon="6.26411">
        <ele>358.71</ele>
        <time>2016-10-11T12:08:32Z</time>
      </trkpt>
      <trkpt lat="43.58216" lon="6.26394">
        <ele>359.19</ele>
        <time>2016-10-11T12:08:47Z</time>
      </trkpt>
      <trkpt lat="43.58218" lon="6.26379">
        <ele>360.63</ele>
        <time>2016-10-11T12:09:03Z</time>
      </trkpt>
      <trkpt lat="43.58216" lon="6.26364">
        <ele>360.63</ele>
        <time>2016-10-11T12:09:15Z</time>
      </trkpt>
      <trkpt lat="43.58217" lon="6.26359">
        <ele>361.11</ele>
        <time>2016-10-11T12:09:20Z</time>
      </trkpt>
      <trkpt lat="43.58219" lon="6.26348">
        <ele>361.59</ele>
        <time>2016-10-11T12:09:32Z</time>
      </trkpt>
      <trkpt lat="43.5822" lon="6.26343">
        <ele>362.07</ele>
        <time>2016-10-11T12:09:37Z</time>
      </trkpt>
      <trkpt lat="43.58227" lon="6.26334">
        <ele>362.55</ele>
        <time>2016-10-11T12:09:51Z</time>
      </trkpt>
      <trkpt lat="43.58232" lon="6.26321">
        <ele>364</ele>
        <time>2016-10-11T12:10:04Z</time>
      </trkpt>
      <trkpt lat="43.58228" lon="6.26312">
        <ele>364.96</ele>
        <time>2016-10-11T12:10:16Z</time>
      </trkpt>
      <trkpt lat="43.58224" lon="6.26305">
        <ele>366.4</ele>
        <time>2016-10-11T12:10:30Z</time>
      </trkpt>
      <trkpt lat="43.58223" lon="6.26298">
        <ele>367.36</ele>
        <time>2016-10-11T12:10:40Z</time>
      </trkpt>
      <trkpt lat="43.58224" lon="6.26286">
        <ele>369.28</ele>
        <time>2016-10-11T12:10:56Z</time>
      </trkpt>
      <trkpt lat="43.58226" lon="6.2628">
        <ele>370.24</ele>
        <time>2016-10-11T12:11:08Z</time>
      </trkpt>
      <trkpt lat="43.58228" lon="6.26271">
        <ele>370.24</ele>
        <time>2016-10-11T12:11:21Z</time>
      </trkpt>
      <trkpt lat="43.58228" lon="6.2627">
        <ele>370.24</ele>
        <time>2016-10-11T12:11:27Z</time>
      </trkpt>
      <trkpt lat="43.58231" lon="6.26256">
        <ele>371.69</ele>
        <time>2016-10-11T12:11:40Z</time>
      </trkpt>
      <trkpt lat="43.58229" lon="6.2624">
        <ele>372.65</ele>
        <time>2016-10-11T12:11:57Z</time>
      </trkpt>
      <trkpt lat="43.58226" lon="6.26224">
        <ele>372.65</ele>
        <time>2016-10-11T12:12:13Z</time>
      </trkpt>
      <trkpt lat="43.58223" lon="6.2621">
        <ele>371.21</ele>
        <time>2016-10-11T12:12:30Z</time>
      </trkpt>
      <trkpt lat="43.58219" lon="6.26198">
        <ele>370.24</ele>
        <time>2016-10-11T12:12:44Z</time>
      </trkpt>
      <trkpt lat="43.58218" lon="6.26188">
        <ele>368.8</ele>
        <time>2016-10-11T12:12:56Z</time>
      </trkpt>
      <trkpt lat="43.58213" lon="6.26177">
        <ele>368.32</ele>
        <time>2016-10-11T12:13:10Z</time>
      </trkpt>
      <trkpt lat="43.58208" lon="6.26167">
        <ele>367.36</ele>
        <time>2016-10-11T12:13:23Z</time>
      </trkpt>
      <trkpt lat="43.58204" lon="6.26155">
        <ele>366.4</ele>
        <time>2016-10-11T12:13:36Z</time>
      </trkpt>
      <trkpt lat="43.58204" lon="6.26147">
        <ele>366.4</ele>
        <time>2016-10-11T12:13:43Z</time>
      </trkpt>
      <trkpt lat="43.58203" lon="6.26138">
        <ele>365.92</ele>
        <time>2016-10-11T12:13:51Z</time>
      </trkpt>
      <trkpt lat="43.58207" lon="6.26128">
        <ele>365.44</ele>
        <time>2016-10-11T12:14:04Z</time>
      </trkpt>
      <trkpt lat="43.58211" lon="6.26117">
        <ele>364.96</ele>
        <time>2016-10-11T12:14:17Z</time>
      </trkpt>
      <trkpt lat="43.5821" lon="6.26113">
        <ele>364.96</ele>
        <time>2016-10-11T12:14:21Z</time>
      </trkpt>
      <trkpt lat="43.58205" lon="6.26096">
        <ele>364.96</ele>
        <time>2016-10-11T12:14:36Z</time>
      </trkpt>
      <trkpt lat="43.58202" lon="6.26083">
        <ele>365.44</ele>
        <time>2016-10-11T12:14:50Z</time>
      </trkpt>
      <trkpt lat="43.58193" lon="6.26067">
        <ele>364.96</ele>
        <time>2016-10-11T12:15:04Z</time>
      </trkpt>
      <trkpt lat="43.58188" lon="6.26052">
        <ele>364.48</ele>
        <time>2016-10-11T12:15:16Z</time>
      </trkpt>
      <trkpt lat="43.58185" lon="6.26039">
        <ele>363.52</ele>
        <time>2016-10-11T12:15:29Z</time>
      </trkpt>
      <trkpt lat="43.58187" lon="6.26023">
        <ele>363.04</ele>
        <time>2016-10-11T12:15:42Z</time>
      </trkpt>
      <trkpt lat="43.58194" lon="6.26006">
        <ele>362.55</ele>
        <time>2016-10-11T12:15:57Z</time>
      </trkpt>
      <trkpt lat="43.58197" lon="6.25992">
        <ele>362.55</ele>
        <time>2016-10-11T12:16:11Z</time>
      </trkpt>
      <trkpt lat="43.58199" lon="6.25975">
        <ele>362.55</ele>
        <time>2016-10-11T12:16:27Z</time>
      </trkpt>
      <trkpt lat="43.582" lon="6.25955">
        <ele>362.07</ele>
        <time>2016-10-11T12:16:45Z</time>
      </trkpt>
      <trkpt lat="43.58201" lon="6.25935">
        <ele>361.11</ele>
        <time>2016-10-11T12:17:03Z</time>
      </trkpt>
      <trkpt lat="43.58203" lon="6.25912">
        <ele>361.11</ele>
        <time>2016-10-11T12:17:21Z</time>
      </trkpt>
      <trkpt lat="43.58203" lon="6.25894">
        <ele>359.67</ele>
        <time>2016-10-11T12:17:36Z</time>
      </trkpt>
      <trkpt lat="43.582" lon="6.25874">
        <ele>359.19</ele>
        <time>2016-10-11T12:17:51Z</time>
      </trkpt>
      <trkpt lat="43.58197" lon="6.25858">
        <ele>358.71</ele>
        <time>2016-10-11T12:18:05Z</time>
      </trkpt>
      <trkpt lat="43.5819" lon="6.25844">
        <ele>359.67</ele>
        <time>2016-10-11T12:18:19Z</time>
      </trkpt>
      <trkpt lat="43.58185" lon="6.2584">
        <ele>360.15</ele>
        <time>2016-10-11T12:18:25Z</time>
      </trkpt>
      <trkpt lat="43.58173" lon="6.25829">
        <ele>361.59</ele>
        <time>2016-10-11T12:18:39Z</time>
      </trkpt>
      <trkpt lat="43.5817" lon="6.25818">
        <ele>361.59</ele>
        <time>2016-10-11T12:18:52Z</time>
      </trkpt>
      <trkpt lat="43.5817" lon="6.25812">
        <ele>362.07</ele>
        <time>2016-10-11T12:19:05Z</time>
      </trkpt>
      <trkpt lat="43.58173" lon="6.25801">
        <ele>363.04</ele>
        <time>2016-10-11T12:19:18Z</time>
      </trkpt>
      <trkpt lat="43.58173" lon="6.25798">
        <ele>363.52</ele>
        <time>2016-10-11T12:19:27Z</time>
      </trkpt>
      <trkpt lat="43.58181" lon="6.25795">
        <ele>364.48</ele>
        <time>2016-10-11T12:19:41Z</time>
      </trkpt>
      <trkpt lat="43.58185" lon="6.25791">
        <ele>365.44</ele>
        <time>2016-10-11T12:19:55Z</time>
      </trkpt>
      <trkpt lat="43.58194" lon="6.25787">
        <ele>366.4</ele>
        <time>2016-10-11T12:20:07Z</time>
      </trkpt>
      <trkpt lat="43.58203" lon="6.25771">
        <ele>367.84</ele>
        <time>2016-10-11T12:20:25Z</time>
      </trkpt>
      <trkpt lat="43.5821" lon="6.25758">
        <ele>369.28</ele>
        <time>2016-10-11T12:20:40Z</time>
      </trkpt>
      <trkpt lat="43.5821" lon="6.25737">
        <ele>369.76</ele>
        <time>2016-10-11T12:20:56Z</time>
      </trkpt>
      <trkpt lat="43.58204" lon="6.25725">
        <ele>370.73</ele>
        <time>2016-10-11T12:21:10Z</time>
      </trkpt>
      <trkpt lat="43.58197" lon="6.25714">
        <ele>371.21</ele>
        <time>2016-10-11T12:21:24Z</time>
      </trkpt>
      <trkpt lat="43.58191" lon="6.25697">
        <ele>370.73</ele>
        <time>2016-10-11T12:21:41Z</time>
      </trkpt>
      <trkpt lat="43.58191" lon="6.25679">
        <ele>369.28</ele>
        <time>2016-10-11T12:21:56Z</time>
      </trkpt>
      <trkpt lat="43.58193" lon="6.25663">
        <ele>369.28</ele>
        <time>2016-10-11T12:22:13Z</time>
      </trkpt>
      <trkpt lat="43.58196" lon="6.25645">
        <ele>370.24</ele>
        <time>2016-10-11T12:22:29Z</time>
      </trkpt>
      <trkpt lat="43.58203" lon="6.25629">
        <ele>370.73</ele>
        <time>2016-10-11T12:22:46Z</time>
      </trkpt>
      <trkpt lat="43.58207" lon="6.25615">
        <ele>371.21</ele>
        <time>2016-10-11T12:23:01Z</time>
      </trkpt>
      <trkpt lat="43.58216" lon="6.256">
        <ele>372.65</ele>
        <time>2016-10-11T12:23:18Z</time>
      </trkpt>
      <trkpt lat="43.58222" lon="6.25591">
        <ele>374.57</ele>
        <time>2016-10-11T12:23:33Z</time>
      </trkpt>
      <trkpt lat="43.58225" lon="6.25586">
        <ele>376.97</ele>
        <time>2016-10-11T12:23:47Z</time>
      </trkpt>
      <trkpt lat="43.58232" lon="6.25566">
        <ele>379.38</ele>
        <time>2016-10-11T12:24:05Z</time>
      </trkpt>
      <trkpt lat="43.58235" lon="6.25546">
        <ele>380.82</ele>
        <time>2016-10-11T12:24:20Z</time>
      </trkpt>
      <trkpt lat="43.58232" lon="6.25539">
        <ele>381.3</ele>
        <time>2016-10-11T12:24:32Z</time>
      </trkpt>
      <trkpt lat="43.58231" lon="6.25534">
        <ele>381.3</ele>
        <time>2016-10-11T12:24:49Z</time>
      </trkpt>
      <trkpt lat="43.5823" lon="6.25533">
        <ele>381.78</ele>
        <time>2016-10-11T12:25:13Z</time>
      </trkpt>
      <trkpt lat="43.58229" lon="6.25534">
        <ele>381.78</ele>
        <time>2016-10-11T12:25:36Z</time>
      </trkpt>
      <trkpt lat="43.58229" lon="6.25533">
        <ele>381.78</ele>
        <time>2016-10-11T12:25:51Z</time>
      </trkpt>
      <trkpt lat="43.5823" lon="6.25533">
        <ele>381.3</ele>
        <time>2016-10-11T12:26:17Z</time>
      </trkpt>
      <trkpt lat="43.58229" lon="6.25533">
        <ele>381.78</ele>
        <time>2016-10-11T12:26:43Z</time>
      </trkpt>
      <trkpt lat="43.58229" lon="6.25533">
        <ele>381.78</ele>
        <time>2016-10-11T12:27:04Z</time>
      </trkpt>
      <trkpt lat="43.58229" lon="6.25534">
        <ele>381.3</ele>
        <time>2016-10-11T12:27:33Z</time>
      </trkpt>
      <trkpt lat="43.5823" lon="6.25534">
        <ele>381.78</ele>
        <time>2016-10-11T12:28:01Z</time>
      </trkpt>
      <trkpt lat="43.58229" lon="6.25521">
        <ele>381.78</ele>
        <time>2016-10-11T12:28:17Z</time>
      </trkpt>
      <trkpt lat="43.58225" lon="6.25504">
        <ele>381.3</ele>
        <time>2016-10-11T12:28:32Z</time>
      </trkpt>
      <trkpt lat="43.58221" lon="6.25498">
        <ele>381.3</ele>
        <time>2016-10-11T12:28:37Z</time>
      </trkpt>
      <trkpt lat="43.58219" lon="6.25485">
        <ele>382.26</ele>
        <time>2016-10-11T12:28:49Z</time>
      </trkpt>
      <trkpt lat="43.58211" lon="6.2547">
        <ele>381.78</ele>
        <time>2016-10-11T12:29:04Z</time>
      </trkpt>
      <trkpt lat="43.5821" lon="6.25467">
        <ele>381.78</ele>
        <time>2016-10-11T12:29:06Z</time>
      </trkpt>
      <trkpt lat="43.58207" lon="6.25462">
        <ele>381.78</ele>
        <time>2016-10-11T12:29:11Z</time>
      </trkpt>
      <trkpt lat="43.58199" lon="6.25444">
        <ele>382.26</ele>
        <time>2016-10-11T12:29:27Z</time>
      </trkpt>
      <trkpt lat="43.58203" lon="6.25431">
        <ele>384.18</ele>
        <time>2016-10-11T12:29:43Z</time>
      </trkpt>
      <trkpt lat="43.58206" lon="6.25419">
        <ele>385.63</ele>
        <time>2016-10-11T12:30:00Z</time>
      </trkpt>
      <trkpt lat="43.58211" lon="6.25408">
        <ele>387.55</ele>
        <time>2016-10-11T12:30:14Z</time>
      </trkpt>
      <trkpt lat="43.58215" lon="6.25397">
        <ele>389.47</ele>
        <time>2016-10-11T12:30:27Z</time>
      </trkpt>
      <trkpt lat="43.58215" lon="6.2539">
        <ele>391.39</ele>
        <time>2016-10-11T12:30:41Z</time>
      </trkpt>
      <trkpt lat="43.5822" lon="6.25378">
        <ele>393.8</ele>
        <time>2016-10-11T12:30:56Z</time>
      </trkpt>
      <trkpt lat="43.58224" lon="6.25369">
        <ele>395.24</ele>
        <time>2016-10-11T12:31:10Z</time>
      </trkpt>
      <trkpt lat="43.58227" lon="6.25362">
        <ele>397.16</ele>
        <time>2016-10-11T12:31:23Z</time>
      </trkpt>
      <trkpt lat="43.58233" lon="6.25353">
        <ele>398.6</ele>
        <time>2016-10-11T12:31:36Z</time>
      </trkpt>
      <trkpt lat="43.58239" lon="6.25343">
        <ele>400.53</ele>
        <time>2016-10-11T12:31:51Z</time>
      </trkpt>
      <trkpt lat="43.58244" lon="6.25333">
        <ele>402.45</ele>
        <time>2016-10-11T12:32:09Z</time>
      </trkpt>
      <trkpt lat="43.5825" lon="6.25322">
        <ele>403.89</ele>
        <time>2016-10-11T12:32:23Z</time>
      </trkpt>
      <trkpt lat="43.58256" lon="6.2531">
        <ele>405.33</ele>
        <time>2016-10-11T12:32:37Z</time>
      </trkpt>
      <trkpt lat="43.58259" lon="6.25302">
        <ele>407.26</ele>
        <time>2016-10-11T12:32:51Z</time>
      </trkpt>
      <trkpt lat="43.58266" lon="6.25298">
        <ele>408.7</ele>
        <time>2016-10-11T12:33:06Z</time>
      </trkpt>
      <trkpt lat="43.58272" lon="6.2528">
        <ele>410.14</ele>
        <time>2016-10-11T12:33:21Z</time>
      </trkpt>
      <trkpt lat="43.58276" lon="6.25268">
        <ele>412.06</ele>
        <time>2016-10-11T12:33:36Z</time>
      </trkpt>
      <trkpt lat="43.58282" lon="6.25263">
        <ele>413.98</ele>
        <time>2016-10-11T12:33:54Z</time>
      </trkpt>
      <trkpt lat="43.58288" lon="6.25262">
        <ele>416.39</ele>
        <time>2016-10-11T12:34:09Z</time>
      </trkpt>
      <trkpt lat="43.58294" lon="6.25257">
        <ele>419.75</ele>
        <time>2016-10-11T12:34:24Z</time>
      </trkpt>
      <trkpt lat="43.58306" lon="6.25258">
        <ele>421.68</ele>
        <time>2016-10-11T12:34:40Z</time>
      </trkpt>
      <trkpt lat="43.5831" lon="6.25256">
        <ele>421.68</ele>
        <time>2016-10-11T12:35:04Z</time>
      </trkpt>
      <trkpt lat="43.58311" lon="6.25257">
        <ele>421.68</ele>
        <time>2016-10-11T12:35:27Z</time>
      </trkpt>
      <trkpt lat="43.58311" lon="6.25258">
        <ele>421.19</ele>
        <time>2016-10-11T12:35:54Z</time>
      </trkpt>
      <trkpt lat="43.58312" lon="6.25258">
        <ele>421.68</ele>
        <time>2016-10-11T12:36:19Z</time>
      </trkpt>
      <trkpt lat="43.58311" lon="6.25257">
        <ele>421.68</ele>
        <time>2016-10-11T12:36:36Z</time>
      </trkpt>
      <trkpt lat="43.58312" lon="6.25257">
        <ele>421.68</ele>
        <time>2016-10-11T12:36:59Z</time>
      </trkpt>
      <trkpt lat="43.58312" lon="6.25257">
        <ele>421.68</ele>
        <time>2016-10-11T12:37:20Z</time>
      </trkpt>
      <trkpt lat="43.58312" lon="6.25256">
        <ele>421.68</ele>
        <time>2016-10-11T12:37:42Z</time>
      </trkpt>
      <trkpt lat="43.58314" lon="6.25256">
        <ele>421.19</ele>
        <time>2016-10-11T12:38:09Z</time>
      </trkpt>
      <trkpt lat="43.58314" lon="6.25256">
        <ele>421.68</ele>
        <time>2016-10-11T12:38:38Z</time>
      </trkpt>
      <trkpt lat="43.58314" lon="6.25256">
        <ele>421.19</ele>
        <time>2016-10-11T12:39:07Z</time>
      </trkpt>
      <trkpt lat="43.58314" lon="6.25256">
        <ele>421.68</ele>
        <time>2016-10-11T12:39:33Z</time>
      </trkpt>
      <trkpt lat="43.58314" lon="6.25256">
        <ele>421.68</ele>
        <time>2016-10-11T12:39:52Z</time>
      </trkpt>
      <trkpt lat="43.58314" lon="6.25256">
        <ele>421.19</ele>
        <time>2016-10-11T12:40:21Z</time>
      </trkpt>
      <trkpt lat="43.58314" lon="6.25258">
        <ele>422.16</ele>
        <time>2016-10-11T12:40:52Z</time>
      </trkpt>
      <trkpt lat="43.58319" lon="6.25263">
        <ele>423.6</ele>
        <time>2016-10-11T12:41:04Z</time>
      </trkpt>
      <trkpt lat="43.58326" lon="6.25261">
        <ele>424.56</ele>
        <time>2016-10-11T12:41:17Z</time>
      </trkpt>
      <trkpt lat="43.58332" lon="6.25254">
        <ele>426</ele>
        <time>2016-10-11T12:41:31Z</time>
      </trkpt>
      <trkpt lat="43.58338" lon="6.2525">
        <ele>427.92</ele>
        <time>2016-10-11T12:41:47Z</time>
      </trkpt>
      <trkpt lat="43.58346" lon="6.25246">
        <ele>429.37</ele>
        <time>2016-10-11T12:42:00Z</time>
      </trkpt>
      <trkpt lat="43.58354" lon="6.25244">
        <ele>430.81</ele>
        <time>2016-10-11T12:42:13Z</time>
      </trkpt>
      <trkpt lat="43.58365" lon="6.2524">
        <ele>432.73</ele>
        <time>2016-10-11T12:42:27Z</time>
      </trkpt>
      <trkpt lat="43.58374" lon="6.25238">
        <ele>434.65</ele>
        <time>2016-10-11T12:42:41Z</time>
      </trkpt>
      <trkpt lat="43.58384" lon="6.25233">
        <ele>436.58</ele>
        <time>2016-10-11T12:42:55Z</time>
      </trkpt>
      <trkpt lat="43.58395" lon="6.25237">
        <ele>438.5</ele>
        <time>2016-10-11T12:43:10Z</time>
      </trkpt>
      <trkpt lat="43.58402" lon="6.25241">
        <ele>439.94</ele>
        <time>2016-10-11T12:43:23Z</time>
      </trkpt>
      <trkpt lat="43.58409" lon="6.25243">
        <ele>441.38</ele>
        <time>2016-10-11T12:43:36Z</time>
      </trkpt>
      <trkpt lat="43.58422" lon="6.25243">
        <ele>443.31</ele>
        <time>2016-10-11T12:43:53Z</time>
      </trkpt>
      <trkpt lat="43.58428" lon="6.25247">
        <ele>443.79</ele>
        <time>2016-10-11T12:44:06Z</time>
      </trkpt>
      <trkpt lat="43.58436" lon="6.25246">
        <ele>445.71</ele>
        <time>2016-10-11T12:44:20Z</time>
      </trkpt>
      <trkpt lat="43.58448" lon="6.25241">
        <ele>447.15</ele>
        <time>2016-10-11T12:44:35Z</time>
      </trkpt>
      <trkpt lat="43.58461" lon="6.2524">
        <ele>448.59</ele>
        <time>2016-10-11T12:44:51Z</time>
      </trkpt>
      <trkpt lat="43.58472" lon="6.25234">
        <ele>449.55</ele>
        <time>2016-10-11T12:45:08Z</time>
      </trkpt>
      <trkpt lat="43.58482" lon="6.25223">
        <ele>450.03</ele>
        <time>2016-10-11T12:45:24Z</time>
      </trkpt>
      <trkpt lat="43.5849" lon="6.25225">
        <ele>450.03</ele>
        <time>2016-10-11T12:45:39Z</time>
      </trkpt>
      <trkpt lat="43.58495" lon="6.25229">
        <ele>449.55</ele>
        <time>2016-10-11T12:45:51Z</time>
      </trkpt>
      <trkpt lat="43.58505" lon="6.25229">
        <ele>449.07</ele>
        <time>2016-10-11T12:46:03Z</time>
      </trkpt>
      <trkpt lat="43.58513" lon="6.25229">
        <ele>448.59</ele>
        <time>2016-10-11T12:46:16Z</time>
      </trkpt>
      <trkpt lat="43.58521" lon="6.25229">
        <ele>447.63</ele>
        <time>2016-10-11T12:46:33Z</time>
      </trkpt>
      <trkpt lat="43.5852" lon="6.25228">
        <ele>447.63</ele>
        <time>2016-10-11T12:46:50Z</time>
      </trkpt>
      <trkpt lat="43.58521" lon="6.25226">
        <ele>447.63</ele>
        <time>2016-10-11T12:47:15Z</time>
      </trkpt>
      <trkpt lat="43.58523" lon="6.25224">
        <ele>448.11</ele>
        <time>2016-10-11T12:47:31Z</time>
      </trkpt>
      <trkpt lat="43.58523" lon="6.25224">
        <ele>443.31</ele>
        <time>2016-10-11T12:47:43Z</time>
      </trkpt>
      <trkpt lat="43.58523" lon="6.25224">
        <ele>451.48</ele>
        <time>2016-10-11T12:47:44Z</time>
      </trkpt>
      <trkpt lat="43.58523" lon="6.25224">
        <ele>447.15</ele>
        <time>2016-10-11T12:47:46Z</time>
      </trkpt>
      <trkpt lat="43.58523" lon="6.25224">
        <ele>447.63</ele>
        <time>2016-10-11T12:48:07Z</time>
      </trkpt>
      <trkpt lat="43.58523" lon="6.25224">
        <ele>447.63</ele>
        <time>2016-10-11T12:48:25Z</time>
      </trkpt>
      <trkpt lat="43.58522" lon="6.25224">
        <ele>447.63</ele>
        <time>2016-10-11T12:48:51Z</time>
      </trkpt>
      <trkpt lat="43.58523" lon="6.25224">
        <ele>447.15</ele>
        <time>2016-10-11T12:49:12Z</time>
      </trkpt>
      <trkpt lat="43.58523" lon="6.25224">
        <ele>446.67</ele>
        <time>2016-10-11T12:49:44Z</time>
      </trkpt>
      <trkpt lat="43.58524" lon="6.25223">
        <ele>447.15</ele>
        <time>2016-10-11T12:50:12Z</time>
      </trkpt>
      <trkpt lat="43.58524" lon="6.25224">
        <ele>447.15</ele>
        <time>2016-10-11T12:50:36Z</time>
      </trkpt>
      <trkpt lat="43.58522" lon="6.25224">
        <ele>447.63</ele>
        <time>2016-10-11T12:51:04Z</time>
      </trkpt>
      <trkpt lat="43.58522" lon="6.25223">
        <ele>447.15</ele>
        <time>2016-10-11T12:51:20Z</time>
      </trkpt>
      <trkpt lat="43.58521" lon="6.25224">
        <ele>447.63</ele>
        <time>2016-10-11T12:51:46Z</time>
      </trkpt>
      <trkpt lat="43.58521" lon="6.25225">
        <ele>447.63</ele>
        <time>2016-10-11T12:52:11Z</time>
      </trkpt>
      <trkpt lat="43.5852" lon="6.25226">
        <ele>447.63</ele>
        <time>2016-10-11T12:52:29Z</time>
      </trkpt>
      <trkpt lat="43.58521" lon="6.25227">
        <ele>447.63</ele>
        <time>2016-10-11T12:52:56Z</time>
      </trkpt>
      <trkpt lat="43.5852" lon="6.25229">
        <ele>447.63</ele>
        <time>2016-10-11T12:53:01Z</time>
      </trkpt>
      <trkpt lat="43.58521" lon="6.25242">
        <ele>447.15</ele>
        <time>2016-10-11T12:53:13Z</time>
      </trkpt>
      <trkpt lat="43.58522" lon="6.25245">
        <ele>446.67</ele>
        <time>2016-10-11T12:53:17Z</time>
      </trkpt>
      <trkpt lat="43.58527" lon="6.25258">
        <ele>445.23</ele>
        <time>2016-10-11T12:53:31Z</time>
      </trkpt>
      <trkpt lat="43.58529" lon="6.25277">
        <ele>443.79</ele>
        <time>2016-10-11T12:53:45Z</time>
      </trkpt>
      <trkpt lat="43.58527" lon="6.25295">
        <ele>444.27</ele>
        <time>2016-10-11T12:53:59Z</time>
      </trkpt>
      <trkpt lat="43.58529" lon="6.253">
        <ele>443.31</ele>
        <time>2016-10-11T12:54:02Z</time>
      </trkpt>
      <trkpt lat="43.58531" lon="6.25307">
        <ele>443.31</ele>
        <time>2016-10-11T12:54:09Z</time>
      </trkpt>
      <trkpt lat="43.58533" lon="6.25307">
        <ele>443.31</ele>
        <time>2016-10-11T12:54:13Z</time>
      </trkpt>
      <trkpt lat="43.58535" lon="6.25315">
        <ele>443.31</ele>
        <time>2016-10-11T12:54:17Z</time>
      </trkpt>
      <trkpt lat="43.58539" lon="6.25329">
        <ele>442.82</ele>
        <time>2016-10-11T12:54:30Z</time>
      </trkpt>
      <trkpt lat="43.58549" lon="6.25334">
        <ele>443.31</ele>
        <time>2016-10-11T12:54:39Z</time>
      </trkpt>
      <trkpt lat="43.58565" lon="6.25335">
        <ele>443.31</ele>
        <time>2016-10-11T12:54:54Z</time>
      </trkpt>
      <trkpt lat="43.5857" lon="6.25337">
        <ele>443.31</ele>
        <time>2016-10-11T12:54:59Z</time>
      </trkpt>
      <trkpt lat="43.58585" lon="6.25343">
        <ele>444.27</ele>
        <time>2016-10-11T12:55:12Z</time>
      </trkpt>
      <trkpt lat="43.58595" lon="6.25356">
        <ele>444.75</ele>
        <time>2016-10-11T12:55:28Z</time>
      </trkpt>
      <trkpt lat="43.58598" lon="6.25364">
        <ele>445.23</ele>
        <time>2016-10-11T12:55:35Z</time>
      </trkpt>
      <trkpt lat="43.58608" lon="6.25381">
        <ele>445.71</ele>
        <time>2016-10-11T12:55:53Z</time>
      </trkpt>
      <trkpt lat="43.58617" lon="6.25395">
        <ele>446.19</ele>
        <time>2016-10-11T12:56:07Z</time>
      </trkpt>
      <trkpt lat="43.58614" lon="6.25407">
        <ele>446.67</ele>
        <time>2016-10-11T12:56:21Z</time>
      </trkpt>
      <trkpt lat="43.58612" lon="6.25411">
        <ele>447.15</ele>
        <time>2016-10-11T12:56:26Z</time>
      </trkpt>
      <trkpt lat="43.58603" lon="6.25427">
        <ele>447.63</ele>
        <time>2016-10-11T12:56:40Z</time>
      </trkpt>
      <trkpt lat="43.58605" lon="6.25448">
        <ele>447.63</ele>
        <time>2016-10-11T12:56:55Z</time>
      </trkpt>
      <trkpt lat="43.58609" lon="6.25463">
        <ele>447.63</ele>
        <time>2016-10-11T12:57:08Z</time>
      </trkpt>
      <trkpt lat="43.58611" lon="6.25466">
        <ele>447.63</ele>
        <time>2016-10-11T12:57:11Z</time>
      </trkpt>
      <trkpt lat="43.58617" lon="6.25479">
        <ele>447.63</ele>
        <time>2016-10-11T12:57:22Z</time>
      </trkpt>
      <trkpt lat="43.58622" lon="6.25499">
        <ele>447.15</ele>
        <time>2016-10-11T12:57:36Z</time>
      </trkpt>
      <trkpt lat="43.58626" lon="6.25518">
        <ele>447.15</ele>
        <time>2016-10-11T12:57:52Z</time>
      </trkpt>
      <trkpt lat="43.58627" lon="6.25537">
        <ele>446.19</ele>
        <time>2016-10-11T12:58:08Z</time>
      </trkpt>
      <trkpt lat="43.58628" lon="6.25547">
        <ele>446.19</ele>
        <time>2016-10-11T12:58:14Z</time>
      </trkpt>
      <trkpt lat="43.5863" lon="6.25569">
        <ele>445.71</ele>
        <time>2016-10-11T12:58:29Z</time>
      </trkpt>
      <trkpt lat="43.58629" lon="6.25576">
        <ele>445.71</ele>
        <time>2016-10-11T12:58:34Z</time>
      </trkpt>
      <trkpt lat="43.58618" lon="6.25591">
        <ele>445.71</ele>
        <time>2016-10-11T12:58:50Z</time>
      </trkpt>
      <trkpt lat="43.58604" lon="6.25602">
        <ele>445.23</ele>
        <time>2016-10-11T12:59:06Z</time>
      </trkpt>
      <trkpt lat="43.58603" lon="6.25622">
        <ele>445.23</ele>
        <time>2016-10-11T12:59:19Z</time>
      </trkpt>
      <trkpt lat="43.58602" lon="6.25641">
        <ele>445.71</ele>
        <time>2016-10-11T12:59:33Z</time>
      </trkpt>
      <trkpt lat="43.58601" lon="6.2565">
        <ele>446.19</ele>
        <time>2016-10-11T12:59:41Z</time>
      </trkpt>
      <trkpt lat="43.586" lon="6.25656">
        <ele>446.67</ele>
        <time>2016-10-11T12:59:45Z</time>
      </trkpt>
      <trkpt lat="43.58601" lon="6.25671">
        <ele>446.67</ele>
        <time>2016-10-11T12:59:55Z</time>
      </trkpt>
      <trkpt lat="43.58604" lon="6.25682">
        <ele>446.67</ele>
        <time>2016-10-11T13:00:03Z</time>
      </trkpt>
      <trkpt lat="43.58605" lon="6.25688">
        <ele>446.67</ele>
        <time>2016-10-11T13:00:07Z</time>
      </trkpt>
      <trkpt lat="43.58606" lon="6.25693">
        <ele>447.15</ele>
        <time>2016-10-11T13:00:11Z</time>
      </trkpt>
      <trkpt lat="43.58607" lon="6.25696">
        <ele>447.15</ele>
        <time>2016-10-11T13:00:13Z</time>
      </trkpt>
      <trkpt lat="43.58615" lon="6.25712">
        <ele>447.63</ele>
        <time>2016-10-11T13:00:27Z</time>
      </trkpt>
      <trkpt lat="43.58623" lon="6.25724">
        <ele>448.11</ele>
        <time>2016-10-11T13:00:37Z</time>
      </trkpt>
      <trkpt lat="43.58625" lon="6.25729">
        <ele>448.11</ele>
        <time>2016-10-11T13:00:44Z</time>
      </trkpt>
      <trkpt lat="43.58629" lon="6.25732">
        <ele>448.11</ele>
        <time>2016-10-11T13:00:48Z</time>
      </trkpt>
      <trkpt lat="43.58632" lon="6.25736">
        <ele>448.11</ele>
        <time>2016-10-11T13:00:52Z</time>
      </trkpt>
      <trkpt lat="43.58636" lon="6.25739">
        <ele>448.59</ele>
        <time>2016-10-11T13:00:57Z</time>
      </trkpt>
      <trkpt lat="43.58651" lon="6.25748">
        <ele>448.11</ele>
        <time>2016-10-11T13:01:13Z</time>
      </trkpt>
      <trkpt lat="43.58659" lon="6.25759">
        <ele>448.59</ele>
        <time>2016-10-11T13:01:25Z</time>
      </trkpt>
      <trkpt lat="43.58662" lon="6.25764">
        <ele>448.59</ele>
        <time>2016-10-11T13:01:29Z</time>
      </trkpt>
      <trkpt lat="43.58664" lon="6.25769">
        <ele>448.59</ele>
        <time>2016-10-11T13:01:34Z</time>
      </trkpt>
      <trkpt lat="43.5867" lon="6.25779">
        <ele>448.11</ele>
        <time>2016-10-11T13:01:44Z</time>
      </trkpt>
      <trkpt lat="43.58678" lon="6.25797">
        <ele>447.63</ele>
        <time>2016-10-11T13:01:59Z</time>
      </trkpt>
      <trkpt lat="43.5868" lon="6.25806">
        <ele>447.63</ele>
        <time>2016-10-11T13:02:08Z</time>
      </trkpt>
      <trkpt lat="43.58682" lon="6.25822">
        <ele>447.15</ele>
        <time>2016-10-11T13:02:22Z</time>
      </trkpt>
      <trkpt lat="43.58684" lon="6.25827">
        <ele>447.15</ele>
        <time>2016-10-11T13:02:25Z</time>
      </trkpt>
      <trkpt lat="43.58686" lon="6.2583">
        <ele>447.15</ele>
        <time>2016-10-11T13:02:27Z</time>
      </trkpt>
      <trkpt lat="43.58698" lon="6.25846">
        <ele>447.63</ele>
        <time>2016-10-11T13:02:43Z</time>
      </trkpt>
      <trkpt lat="43.58701" lon="6.25857">
        <ele>448.11</ele>
        <time>2016-10-11T13:02:53Z</time>
      </trkpt>
      <trkpt lat="43.58698" lon="6.25873">
        <ele>448.59</ele>
        <time>2016-10-11T13:03:08Z</time>
      </trkpt>
      <trkpt lat="43.58698" lon="6.25886">
        <ele>449.55</ele>
        <time>2016-10-11T13:03:18Z</time>
      </trkpt>
      <trkpt lat="43.587" lon="6.25891">
        <ele>449.55</ele>
        <time>2016-10-11T13:03:22Z</time>
      </trkpt>
      <trkpt lat="43.58705" lon="6.25896">
        <ele>450.03</ele>
        <time>2016-10-11T13:03:27Z</time>
      </trkpt>
      <trkpt lat="43.58709" lon="6.259">
        <ele>450.03</ele>
        <time>2016-10-11T13:03:33Z</time>
      </trkpt>
      <trkpt lat="43.58712" lon="6.25901">
        <ele>449.55</ele>
        <time>2016-10-11T13:03:35Z</time>
      </trkpt>
      <trkpt lat="43.58728" lon="6.25911">
        <ele>449.55</ele>
        <time>2016-10-11T13:03:52Z</time>
      </trkpt>
      <trkpt lat="43.58734" lon="6.25913">
        <ele>449.55</ele>
        <time>2016-10-11T13:03:58Z</time>
      </trkpt>
      <trkpt lat="43.58742" lon="6.25928">
        <ele>449.07</ele>
        <time>2016-10-11T13:04:12Z</time>
      </trkpt>
      <trkpt lat="43.5875" lon="6.25943">
        <ele>448.59</ele>
        <time>2016-10-11T13:04:28Z</time>
      </trkpt>
      <trkpt lat="43.58756" lon="6.2595">
        <ele>448.11</ele>
        <time>2016-10-11T13:04:38Z</time>
      </trkpt>
      <trkpt lat="43.5877" lon="6.25961">
        <ele>447.63</ele>
        <time>2016-10-11T13:04:52Z</time>
      </trkpt>
      <trkpt lat="43.58778" lon="6.25964">
        <ele>448.11</ele>
        <time>2016-10-11T13:05:00Z</time>
      </trkpt>
      <trkpt lat="43.58789" lon="6.25971">
        <ele>447.63</ele>
        <time>2016-10-11T13:05:12Z</time>
      </trkpt>
      <trkpt lat="43.58792" lon="6.25976">
        <ele>448.11</ele>
        <time>2016-10-11T13:05:26Z</time>
      </trkpt>
      <trkpt lat="43.58794" lon="6.25974">
        <ele>448.11</ele>
        <time>2016-10-11T13:05:46Z</time>
      </trkpt>
      <trkpt lat="43.58802" lon="6.25975">
        <ele>447.63</ele>
        <time>2016-10-11T13:05:57Z</time>
      </trkpt>
      <trkpt lat="43.58808" lon="6.25974">
        <ele>448.59</ele>
        <time>2016-10-11T13:06:06Z</time>
      </trkpt>
      <trkpt lat="43.58821" lon="6.25976">
        <ele>449.07</ele>
        <time>2016-10-11T13:06:22Z</time>
      </trkpt>
      <trkpt lat="43.58832" lon="6.25985">
        <ele>449.07</ele>
        <time>2016-10-11T13:06:37Z</time>
      </trkpt>
      <trkpt lat="43.58833" lon="6.25986">
        <ele>449.07</ele>
        <time>2016-10-11T13:06:39Z</time>
      </trkpt>
      <trkpt lat="43.58844" lon="6.25988">
        <ele>449.55</ele>
        <time>2016-10-11T13:06:52Z</time>
      </trkpt>
      <trkpt lat="43.58856" lon="6.25985">
        <ele>450.03</ele>
        <time>2016-10-11T13:07:05Z</time>
      </trkpt>
      <trkpt lat="43.58861" lon="6.25986">
        <ele>450.52</ele>
        <time>2016-10-11T13:07:12Z</time>
      </trkpt>
      <trkpt lat="43.58873" lon="6.25989">
        <ele>451</ele>
        <time>2016-10-11T13:07:25Z</time>
      </trkpt>
      <trkpt lat="43.58874" lon="6.25994">
        <ele>451.48</ele>
        <time>2016-10-11T13:07:31Z</time>
      </trkpt>
      <trkpt lat="43.58876" lon="6.25997">
        <ele>451.48</ele>
        <time>2016-10-11T13:07:35Z</time>
      </trkpt>
      <trkpt lat="43.58885" lon="6.26011">
        <ele>451.96</ele>
        <time>2016-10-11T13:07:50Z</time>
      </trkpt>
      <trkpt lat="43.5889" lon="6.26016">
        <ele>451.96</ele>
        <time>2016-10-11T13:07:57Z</time>
      </trkpt>
      <trkpt lat="43.58902" lon="6.2602">
        <ele>452.92</ele>
        <time>2016-10-11T13:08:12Z</time>
      </trkpt>
      <trkpt lat="43.58908" lon="6.2602">
        <ele>452.92</ele>
        <time>2016-10-11T13:08:18Z</time>
      </trkpt>
      <trkpt lat="43.58918" lon="6.26027">
        <ele>453.88</ele>
        <time>2016-10-11T13:08:32Z</time>
      </trkpt>
      <trkpt lat="43.58927" lon="6.26038">
        <ele>454.36</ele>
        <time>2016-10-11T13:08:46Z</time>
      </trkpt>
      <trkpt lat="43.58931" lon="6.26041">
        <ele>454.84</ele>
        <time>2016-10-11T13:08:50Z</time>
      </trkpt>
      <trkpt lat="43.58941" lon="6.26048">
        <ele>455.32</ele>
        <time>2016-10-11T13:09:00Z</time>
      </trkpt>
      <trkpt lat="43.58948" lon="6.2606">
        <ele>455.8</ele>
        <time>2016-10-11T13:09:14Z</time>
      </trkpt>
      <trkpt lat="43.5895" lon="6.26074">
        <ele>456.76</ele>
        <time>2016-10-11T13:09:28Z</time>
      </trkpt>
      <trkpt lat="43.58952" lon="6.2608">
        <ele>457.24</ele>
        <time>2016-10-11T13:09:32Z</time>
      </trkpt>
      <trkpt lat="43.58955" lon="6.26088">
        <ele>457.24</ele>
        <time>2016-10-11T13:09:38Z</time>
      </trkpt>
      <trkpt lat="43.58964" lon="6.26104">
        <ele>457.72</ele>
        <time>2016-10-11T13:09:52Z</time>
      </trkpt>
      <trkpt lat="43.58971" lon="6.26111">
        <ele>457.72</ele>
        <time>2016-10-11T13:10:02Z</time>
      </trkpt>
      <trkpt lat="43.58976" lon="6.26115">
        <ele>457.72</ele>
        <time>2016-10-11T13:10:07Z</time>
      </trkpt>
      <trkpt lat="43.58979" lon="6.26116">
        <ele>457.72</ele>
        <time>2016-10-11T13:10:11Z</time>
      </trkpt>
      <trkpt lat="43.58983" lon="6.2612">
        <ele>457.72</ele>
        <time>2016-10-11T13:10:16Z</time>
      </trkpt>
      <trkpt lat="43.58991" lon="6.26124">
        <ele>457.72</ele>
        <time>2016-10-11T13:10:24Z</time>
      </trkpt>
      <trkpt lat="43.59002" lon="6.2613">
        <ele>457.24</ele>
        <time>2016-10-11T13:10:36Z</time>
      </trkpt>
      <trkpt lat="43.59008" lon="6.26139">
        <ele>457.24</ele>
        <time>2016-10-11T13:10:49Z</time>
      </trkpt>
      <trkpt lat="43.59" lon="6.26152">
        <ele>456.28</ele>
        <time>2016-10-11T13:11:05Z</time>
      </trkpt>
      <trkpt lat="43.58995" lon="6.26159">
        <ele>455.8</ele>
        <time>2016-10-11T13:11:13Z</time>
      </trkpt>
      <trkpt lat="43.58986" lon="6.26173">
        <ele>455.32</ele>
        <time>2016-10-11T13:11:28Z</time>
      </trkpt>
      <trkpt lat="43.58979" lon="6.26187">
        <ele>454.36</ele>
        <time>2016-10-11T13:11:41Z</time>
      </trkpt>
      <trkpt lat="43.58977" lon="6.2619">
        <ele>453.88</ele>
        <time>2016-10-11T13:11:45Z</time>
      </trkpt>
      <trkpt lat="43.58976" lon="6.26194">
        <ele>453.88</ele>
        <time>2016-10-11T13:11:48Z</time>
      </trkpt>
      <trkpt lat="43.58971" lon="6.26202">
        <ele>452.92</ele>
        <time>2016-10-11T13:11:57Z</time>
      </trkpt>
      <trkpt lat="43.58968" lon="6.26207">
        <ele>452.92</ele>
        <time>2016-10-11T13:12:04Z</time>
      </trkpt>
      <trkpt lat="43.58959" lon="6.26222">
        <ele>451.96</ele>
        <time>2016-10-11T13:12:18Z</time>
      </trkpt>
      <trkpt lat="43.58954" lon="6.26237">
        <ele>451</ele>
        <time>2016-10-11T13:12:32Z</time>
      </trkpt>
      <trkpt lat="43.58959" lon="6.26252">
        <ele>451</ele>
        <time>2016-10-11T13:12:46Z</time>
      </trkpt>
      <trkpt lat="43.58961" lon="6.26253">
        <ele>451.48</ele>
        <time>2016-10-11T13:12:49Z</time>
      </trkpt>
      <trkpt lat="43.58963" lon="6.26254">
        <ele>451.48</ele>
        <time>2016-10-11T13:12:51Z</time>
      </trkpt>
      <trkpt lat="43.58972" lon="6.26259">
        <ele>451.96</ele>
        <time>2016-10-11T13:13:04Z</time>
      </trkpt>
      <trkpt lat="43.58986" lon="6.26258">
        <ele>452.92</ele>
        <time>2016-10-11T13:13:21Z</time>
      </trkpt>
      <trkpt lat="43.58989" lon="6.26261">
        <ele>452.92</ele>
        <time>2016-10-11T13:13:26Z</time>
      </trkpt>
      <trkpt lat="43.58994" lon="6.26273">
        <ele>452.44</ele>
        <time>2016-10-11T13:13:38Z</time>
      </trkpt>
      <trkpt lat="43.58994" lon="6.26289">
        <ele>451.96</ele>
        <time>2016-10-11T13:13:53Z</time>
      </trkpt>
      <trkpt lat="43.58995" lon="6.26294">
        <ele>451.96</ele>
        <time>2016-10-11T13:13:56Z</time>
      </trkpt>
      <trkpt lat="43.58997" lon="6.26305">
        <ele>451.96</ele>
        <time>2016-10-11T13:14:10Z</time>
      </trkpt>
      <trkpt lat="43.58997" lon="6.26306">
        <ele>451.96</ele>
        <time>2016-10-11T13:14:26Z</time>
      </trkpt>
      <trkpt lat="43.58998" lon="6.26305">
        <ele>451.96</ele>
        <time>2016-10-11T13:14:41Z</time>
      </trkpt>
      <trkpt lat="43.58998" lon="6.26305">
        <ele>451.96</ele>
        <time>2016-10-11T13:15:07Z</time>
      </trkpt>
      <trkpt lat="43.58998" lon="6.26304">
        <ele>451.96</ele>
        <time>2016-10-11T13:15:35Z</time>
      </trkpt>
      <trkpt lat="43.58998" lon="6.26305">
        <ele>451.96</ele>
        <time>2016-10-11T13:16:02Z</time>
      </trkpt>
      <trkpt lat="43.58998" lon="6.26305">
        <ele>451.48</ele>
        <time>2016-10-11T13:16:26Z</time>
      </trkpt>
      <trkpt lat="43.59001" lon="6.26313">
        <ele>451.48</ele>
        <time>2016-10-11T13:16:39Z</time>
      </trkpt>
      <trkpt lat="43.59003" lon="6.26316">
        <ele>451.48</ele>
        <time>2016-10-11T13:16:43Z</time>
      </trkpt>
      <trkpt lat="43.59014" lon="6.26328">
        <ele>451.48</ele>
        <time>2016-10-11T13:16:57Z</time>
      </trkpt>
      <trkpt lat="43.59015" lon="6.26329">
        <ele>451.48</ele>
        <time>2016-10-11T13:16:58Z</time>
      </trkpt>
      <trkpt lat="43.59025" lon="6.26339">
        <ele>451.96</ele>
        <time>2016-10-11T13:17:11Z</time>
      </trkpt>
      <trkpt lat="43.5903" lon="6.26341">
        <ele>451.96</ele>
        <time>2016-10-11T13:17:16Z</time>
      </trkpt>
      <trkpt lat="43.59043" lon="6.26343">
        <ele>452.44</ele>
        <time>2016-10-11T13:17:30Z</time>
      </trkpt>
      <trkpt lat="43.59048" lon="6.26353">
        <ele>452.44</ele>
        <time>2016-10-11T13:17:43Z</time>
      </trkpt>
      <trkpt lat="43.59048" lon="6.26354">
        <ele>452.44</ele>
        <time>2016-10-11T13:17:44Z</time>
      </trkpt>
      <trkpt lat="43.59046" lon="6.26357">
        <ele>452.44</ele>
        <time>2016-10-11T13:17:47Z</time>
      </trkpt>
      <trkpt lat="43.5904" lon="6.26365">
        <ele>452.44</ele>
        <time>2016-10-11T13:17:57Z</time>
      </trkpt>
      <trkpt lat="43.59038" lon="6.26371">
        <ele>452.44</ele>
        <time>2016-10-11T13:18:03Z</time>
      </trkpt>
      <trkpt lat="43.59039" lon="6.26388">
        <ele>452.92</ele>
        <time>2016-10-11T13:18:18Z</time>
      </trkpt>
      <trkpt lat="43.5904" lon="6.26404">
        <ele>453.88</ele>
        <time>2016-10-11T13:18:32Z</time>
      </trkpt>
      <trkpt lat="43.59039" lon="6.26424">
        <ele>454.36</ele>
        <time>2016-10-11T13:18:47Z</time>
      </trkpt>
      <trkpt lat="43.5904" lon="6.26434">
        <ele>455.32</ele>
        <time>2016-10-11T13:19:01Z</time>
      </trkpt>
      <trkpt lat="43.59047" lon="6.26449">
        <ele>455.8</ele>
        <time>2016-10-11T13:19:14Z</time>
      </trkpt>
      <trkpt lat="43.59053" lon="6.26456">
        <ele>456.76</ele>
        <time>2016-10-11T13:19:22Z</time>
      </trkpt>
      <trkpt lat="43.59056" lon="6.2646">
        <ele>457.24</ele>
        <time>2016-10-11T13:19:26Z</time>
      </trkpt>
      <trkpt lat="43.59062" lon="6.26469">
        <ele>458.21</ele>
        <time>2016-10-11T13:19:38Z</time>
      </trkpt>
      <trkpt lat="43.59067" lon="6.26487">
        <ele>459.17</ele>
        <time>2016-10-11T13:19:54Z</time>
      </trkpt>
      <trkpt lat="43.59073" lon="6.26501">
        <ele>460.13</ele>
        <time>2016-10-11T13:20:09Z</time>
      </trkpt>
      <trkpt lat="43.59075" lon="6.26504">
        <ele>460.61</ele>
        <time>2016-10-11T13:20:12Z</time>
      </trkpt>
      <trkpt lat="43.59079" lon="6.26507">
        <ele>461.09</ele>
        <time>2016-10-11T13:20:16Z</time>
      </trkpt>
      <trkpt lat="43.59089" lon="6.2652">
        <ele>461.57</ele>
        <time>2016-10-11T13:20:30Z</time>
      </trkpt>
      <trkpt lat="43.59095" lon="6.2653">
        <ele>462.53</ele>
        <time>2016-10-11T13:20:43Z</time>
      </trkpt>
      <trkpt lat="43.59099" lon="6.26545">
        <ele>463.01</ele>
        <time>2016-10-11T13:20:58Z</time>
      </trkpt>
      <trkpt lat="43.59107" lon="6.26563">
        <ele>463.49</ele>
        <time>2016-10-11T13:21:14Z</time>
      </trkpt>
      <trkpt lat="43.59113" lon="6.26577">
        <ele>464.45</ele>
        <time>2016-10-11T13:21:28Z</time>
      </trkpt>
      <trkpt lat="43.59117" lon="6.26588">
        <ele>465.42</ele>
        <time>2016-10-11T13:21:40Z</time>
      </trkpt>
      <trkpt lat="43.59116" lon="6.26604">
        <ele>465.42</ele>
        <time>2016-10-11T13:21:53Z</time>
      </trkpt>
      <trkpt lat="43.59116" lon="6.26624">
        <ele>465.9</ele>
        <time>2016-10-11T13:22:09Z</time>
      </trkpt>
      <trkpt lat="43.59117" lon="6.26629">
        <ele>465.9</ele>
        <time>2016-10-11T13:22:13Z</time>
      </trkpt>
      <trkpt lat="43.59117" lon="6.26634">
        <ele>465.9</ele>
        <time>2016-10-11T13:22:17Z</time>
      </trkpt>
      <trkpt lat="43.59119" lon="6.26651">
        <ele>466.38</ele>
        <time>2016-10-11T13:22:30Z</time>
      </trkpt>
      <trkpt lat="43.59121" lon="6.26665">
        <ele>466.86</ele>
        <time>2016-10-11T13:22:42Z</time>
      </trkpt>
      <trkpt lat="43.59121" lon="6.26677">
        <ele>467.82</ele>
        <time>2016-10-11T13:22:53Z</time>
      </trkpt>
      <trkpt lat="43.59121" lon="6.26687">
        <ele>467.82</ele>
        <time>2016-10-11T13:23:01Z</time>
      </trkpt>
      <trkpt lat="43.59126" lon="6.26694">
        <ele>468.78</ele>
        <time>2016-10-11T13:23:07Z</time>
      </trkpt>
      <trkpt lat="43.59133" lon="6.26701">
        <ele>469.74</ele>
        <time>2016-10-11T13:23:20Z</time>
      </trkpt>
      <trkpt lat="43.59141" lon="6.26713">
        <ele>471.18</ele>
        <time>2016-10-11T13:23:37Z</time>
      </trkpt>
      <trkpt lat="43.59148" lon="6.26723">
        <ele>472.63</ele>
        <time>2016-10-11T13:23:54Z</time>
      </trkpt>
      <trkpt lat="43.59148" lon="6.26735">
        <ele>473.59</ele>
        <time>2016-10-11T13:24:07Z</time>
      </trkpt>
      <trkpt lat="43.5915" lon="6.26753">
        <ele>475.03</ele>
        <time>2016-10-11T13:24:22Z</time>
      </trkpt>
      <trkpt lat="43.59157" lon="6.26765">
        <ele>476.47</ele>
        <time>2016-10-11T13:24:35Z</time>
      </trkpt>
      <trkpt lat="43.59162" lon="6.26776">
        <ele>478.39</ele>
        <time>2016-10-11T13:24:49Z</time>
      </trkpt>
      <trkpt lat="43.59164" lon="6.26785">
        <ele>478.87</ele>
        <time>2016-10-11T13:24:58Z</time>
      </trkpt>
      <trkpt lat="43.59167" lon="6.26792">
        <ele>479.84</ele>
        <time>2016-10-11T13:25:05Z</time>
      </trkpt>
      <trkpt lat="43.59172" lon="6.26806">
        <ele>480.8</ele>
        <time>2016-10-11T13:25:18Z</time>
      </trkpt>
      <trkpt lat="43.59178" lon="6.26821">
        <ele>481.76</ele>
        <time>2016-10-11T13:25:31Z</time>
      </trkpt>
      <trkpt lat="43.59181" lon="6.26826">
        <ele>481.76</ele>
        <time>2016-10-11T13:25:44Z</time>
      </trkpt>
      <trkpt lat="43.5918" lon="6.26826">
        <ele>481.76</ele>
        <time>2016-10-11T13:26:04Z</time>
      </trkpt>
      <trkpt lat="43.59181" lon="6.26827">
        <ele>481.76</ele>
        <time>2016-10-11T13:26:19Z</time>
      </trkpt>
      <trkpt lat="43.59183" lon="6.26826">
        <ele>481.76</ele>
        <time>2016-10-11T13:26:32Z</time>
      </trkpt>
      <trkpt lat="43.59186" lon="6.2682">
        <ele>482.24</ele>
        <time>2016-10-11T13:26:43Z</time>
      </trkpt>
      <trkpt lat="43.59189" lon="6.26813">
        <ele>483.2</ele>
        <time>2016-10-11T13:26:55Z</time>
      </trkpt>
      <trkpt lat="43.59191" lon="6.26812">
        <ele>483.68</ele>
        <time>2016-10-11T13:27:11Z</time>
      </trkpt>
      <trkpt lat="43.59191" lon="6.26811">
        <ele>483.68</ele>
        <time>2016-10-11T13:27:50Z</time>
      </trkpt>
      <trkpt lat="43.59189" lon="6.26813">
        <ele>482.72</ele>
        <time>2016-10-11T13:28:02Z</time>
      </trkpt>
      <trkpt lat="43.59184" lon="6.26816">
        <ele>482.24</ele>
        <time>2016-10-11T13:28:13Z</time>
      </trkpt>
      <trkpt lat="43.59181" lon="6.26822">
        <ele>481.76</ele>
        <time>2016-10-11T13:28:24Z</time>
      </trkpt>
      <trkpt lat="43.59181" lon="6.26825">
        <ele>481.76</ele>
        <time>2016-10-11T13:28:39Z</time>
      </trkpt>
      <trkpt lat="43.59181" lon="6.26826">
        <ele>481.76</ele>
        <time>2016-10-11T13:29:05Z</time>
      </trkpt>
      <trkpt lat="43.59181" lon="6.26826">
        <ele>482.24</ele>
        <time>2016-10-11T13:29:18Z</time>
      </trkpt>
      <trkpt lat="43.59182" lon="6.26826">
        <ele>480.8</ele>
        <time>2016-10-11T13:29:37Z</time>
      </trkpt>
      <trkpt lat="43.59182" lon="6.26826">
        <ele>484.16</ele>
        <time>2016-10-11T13:29:38Z</time>
      </trkpt>
      <trkpt lat="43.59183" lon="6.26826">
        <ele>481.76</ele>
        <time>2016-10-11T13:29:54Z</time>
      </trkpt>
      <trkpt lat="43.59183" lon="6.26826">
        <ele>481.28</ele>
        <time>2016-10-11T13:30:21Z</time>
      </trkpt>
      <trkpt lat="43.59182" lon="6.26826">
        <ele>481.28</ele>
        <time>2016-10-11T13:30:57Z</time>
      </trkpt>
      <trkpt lat="43.59182" lon="6.26826">
        <ele>481.28</ele>
        <time>2016-10-11T13:31:24Z</time>
      </trkpt>
      <trkpt lat="43.59183" lon="6.26831">
        <ele>481.28</ele>
        <time>2016-10-11T13:31:44Z</time>
      </trkpt>
      <trkpt lat="43.59191" lon="6.26846">
        <ele>480.8</ele>
        <time>2016-10-11T13:31:57Z</time>
      </trkpt>
      <trkpt lat="43.59192" lon="6.26847">
        <ele>480.8</ele>
        <time>2016-10-11T13:31:58Z</time>
      </trkpt>
      <trkpt lat="43.59203" lon="6.26854">
        <ele>480.32</ele>
        <time>2016-10-11T13:32:09Z</time>
      </trkpt>
      <trkpt lat="43.59213" lon="6.26857">
        <ele>479.84</ele>
        <time>2016-10-11T13:32:21Z</time>
      </trkpt>
      <trkpt lat="43.59226" lon="6.26862">
        <ele>479.35</ele>
        <time>2016-10-11T13:32:34Z</time>
      </trkpt>
      <trkpt lat="43.59229" lon="6.26864">
        <ele>479.35</ele>
        <time>2016-10-11T13:32:37Z</time>
      </trkpt>
      <trkpt lat="43.59237" lon="6.26874">
        <ele>479.35</ele>
        <time>2016-10-11T13:32:52Z</time>
      </trkpt>
      <trkpt lat="43.59236" lon="6.26886">
        <ele>480.8</ele>
        <time>2016-10-11T13:33:06Z</time>
      </trkpt>
      <trkpt lat="43.59235" lon="6.26888">
        <ele>481.28</ele>
        <time>2016-10-11T13:33:09Z</time>
      </trkpt>
      <trkpt lat="43.59227" lon="6.26905">
        <ele>481.76</ele>
        <time>2016-10-11T13:33:24Z</time>
      </trkpt>
      <trkpt lat="43.59225" lon="6.26913">
        <ele>482.24</ele>
        <time>2016-10-11T13:33:39Z</time>
      </trkpt>
      <trkpt lat="43.59218" lon="6.26923">
        <ele>482.24</ele>
        <time>2016-10-11T13:33:50Z</time>
      </trkpt>
      <trkpt lat="43.59208" lon="6.26932">
        <ele>482.72</ele>
        <time>2016-10-11T13:34:04Z</time>
      </trkpt>
      <trkpt lat="43.59198" lon="6.26939">
        <ele>483.68</ele>
        <time>2016-10-11T13:34:18Z</time>
      </trkpt>
      <trkpt lat="43.59188" lon="6.26948">
        <ele>484.64</ele>
        <time>2016-10-11T13:34:32Z</time>
      </trkpt>
      <trkpt lat="43.59179" lon="6.26959">
        <ele>485.6</ele>
        <time>2016-10-11T13:34:46Z</time>
      </trkpt>
      <trkpt lat="43.59173" lon="6.26977">
        <ele>487.53</ele>
        <time>2016-10-11T13:35:03Z</time>
      </trkpt>
      <trkpt lat="43.59172" lon="6.26993">
        <ele>488.97</ele>
        <time>2016-10-11T13:35:18Z</time>
      </trkpt>
      <trkpt lat="43.59175" lon="6.27016">
        <ele>490.41</ele>
        <time>2016-10-11T13:35:37Z</time>
      </trkpt>
      <trkpt lat="43.59175" lon="6.27031">
        <ele>491.37</ele>
        <time>2016-10-11T13:35:51Z</time>
      </trkpt>
      <trkpt lat="43.59176" lon="6.2705">
        <ele>492.33</ele>
        <time>2016-10-11T13:36:06Z</time>
      </trkpt>
      <trkpt lat="43.59182" lon="6.27069">
        <ele>493.29</ele>
        <time>2016-10-11T13:36:22Z</time>
      </trkpt>
      <trkpt lat="43.59187" lon="6.27076">
        <ele>495.22</ele>
        <time>2016-10-11T13:36:36Z</time>
      </trkpt>
      <trkpt lat="43.59196" lon="6.27089">
        <ele>497.14</ele>
        <time>2016-10-11T13:36:53Z</time>
      </trkpt>
      <trkpt lat="43.59203" lon="6.27102">
        <ele>498.1</ele>
        <time>2016-10-11T13:37:06Z</time>
      </trkpt>
      <trkpt lat="43.5921" lon="6.27115">
        <ele>499.06</ele>
        <time>2016-10-11T13:37:20Z</time>
      </trkpt>
      <trkpt lat="43.59213" lon="6.27119">
        <ele>499.54</ele>
        <time>2016-10-11T13:37:34Z</time>
      </trkpt>
      <trkpt lat="43.59216" lon="6.2712">
        <ele>500.02</ele>
        <time>2016-10-11T13:37:47Z</time>
      </trkpt>
      <trkpt lat="43.59217" lon="6.27119">
        <ele>500.02</ele>
        <time>2016-10-11T13:38:14Z</time>
      </trkpt>
      <trkpt lat="43.59217" lon="6.27118">
        <ele>500.02</ele>
        <time>2016-10-11T13:38:48Z</time>
      </trkpt>
      <trkpt lat="43.59217" lon="6.27118">
        <ele>500.02</ele>
        <time>2016-10-11T13:39:14Z</time>
      </trkpt>
      <trkpt lat="43.59217" lon="6.27118">
        <ele>500.02</ele>
        <time>2016-10-11T13:39:46Z</time>
      </trkpt>
      <trkpt lat="43.59217" lon="6.27117">
        <ele>500.02</ele>
        <time>2016-10-11T13:40:11Z</time>
      </trkpt>
      <trkpt lat="43.5922" lon="6.27119">
        <ele>500.5</ele>
        <time>2016-10-11T13:40:33Z</time>
      </trkpt>
      <trkpt lat="43.59225" lon="6.27122">
        <ele>501.95</ele>
        <time>2016-10-11T13:40:46Z</time>
      </trkpt>
      <trkpt lat="43.59232" lon="6.27128">
        <ele>502.91</ele>
        <time>2016-10-11T13:41:02Z</time>
      </trkpt>
      <trkpt lat="43.59235" lon="6.27128">
        <ele>503.39</ele>
        <time>2016-10-11T13:41:16Z</time>
      </trkpt>
      <trkpt lat="43.59242" lon="6.27135">
        <ele>504.83</ele>
        <time>2016-10-11T13:41:29Z</time>
      </trkpt>
      <trkpt lat="43.59246" lon="6.27137">
        <ele>508.67</ele>
        <time>2016-10-11T13:41:34Z</time>
      </trkpt>
      <trkpt lat="43.59249" lon="6.27141">
        <ele>505.31</ele>
        <time>2016-10-11T13:41:39Z</time>
      </trkpt>
      <trkpt lat="43.59253" lon="6.2715">
        <ele>507.23</ele>
        <time>2016-10-11T13:41:51Z</time>
      </trkpt>
      <trkpt lat="43.59263" lon="6.27158">
        <ele>508.67</ele>
        <time>2016-10-11T13:42:06Z</time>
      </trkpt>
      <trkpt lat="43.59271" lon="6.27166">
        <ele>510.6</ele>
        <time>2016-10-11T13:42:21Z</time>
      </trkpt>
      <trkpt lat="43.59281" lon="6.27171">
        <ele>511.56</ele>
        <time>2016-10-11T13:42:34Z</time>
      </trkpt>
      <trkpt lat="43.59279" lon="6.27178">
        <ele>509.64</ele>
        <time>2016-10-11T13:42:47Z</time>
      </trkpt>
      <trkpt lat="43.59279" lon="6.27178">
        <ele>510.6</ele>
        <time>2016-10-11T13:43:14Z</time>
      </trkpt>
      <trkpt lat="43.59277" lon="6.27179">
        <ele>510.12</ele>
        <time>2016-10-11T13:43:40Z</time>
      </trkpt>
      <trkpt lat="43.59279" lon="6.2718">
        <ele>510.12</ele>
        <time>2016-10-11T13:44:06Z</time>
      </trkpt>
      <trkpt lat="43.5928" lon="6.27181">
        <ele>509.64</ele>
        <time>2016-10-11T13:44:19Z</time>
      </trkpt>
      <trkpt lat="43.5928" lon="6.27181">
        <ele>509.64</ele>
        <time>2016-10-11T13:44:46Z</time>
      </trkpt>
      <trkpt lat="43.5928" lon="6.27181">
        <ele>509.64</ele>
        <time>2016-10-11T13:45:09Z</time>
      </trkpt>
      <trkpt lat="43.5928" lon="6.27182">
        <ele>509.64</ele>
        <time>2016-10-11T13:45:30Z</time>
      </trkpt>
      <trkpt lat="43.59279" lon="6.27182">
        <ele>510.12</ele>
        <time>2016-10-11T13:45:56Z</time>
      </trkpt>
      <trkpt lat="43.59279" lon="6.27181">
        <ele>509.64</ele>
        <time>2016-10-11T13:46:23Z</time>
      </trkpt>
      <trkpt lat="43.59279" lon="6.27181">
        <ele>509.64</ele>
        <time>2016-10-11T13:46:47Z</time>
      </trkpt>
      <trkpt lat="43.59279" lon="6.27181">
        <ele>509.64</ele>
        <time>2016-10-11T13:47:18Z</time>
      </trkpt>
      <trkpt lat="43.59279" lon="6.27181">
        <ele>509.64</ele>
        <time>2016-10-11T13:47:52Z</time>
      </trkpt>
      <trkpt lat="43.5928" lon="6.27181">
        <ele>509.64</ele>
        <time>2016-10-11T13:48:21Z</time>
      </trkpt>
      <trkpt lat="43.5928" lon="6.27181">
        <ele>509.64</ele>
        <time>2016-10-11T13:48:52Z</time>
      </trkpt>
      <trkpt lat="43.5928" lon="6.27181">
        <ele>509.64</ele>
        <time>2016-10-11T13:49:20Z</time>
      </trkpt>
      <trkpt lat="43.5928" lon="6.2718">
        <ele>509.16</ele>
        <time>2016-10-11T13:49:53Z</time>
      </trkpt>
      <trkpt lat="43.59279" lon="6.2718">
        <ele>509.16</ele>
        <time>2016-10-11T13:50:26Z</time>
      </trkpt>
      <trkpt lat="43.5928" lon="6.27181">
        <ele>509.16</ele>
        <time>2016-10-11T13:50:59Z</time>
      </trkpt>
      <trkpt lat="43.59281" lon="6.27181">
        <ele>508.67</ele>
        <time>2016-10-11T13:51:16Z</time>
      </trkpt>
      <trkpt lat="43.59282" lon="6.27181">
        <ele>508.67</ele>
        <time>2016-10-11T13:51:37Z</time>
      </trkpt>
      <trkpt lat="43.59283" lon="6.27182">
        <ele>508.67</ele>
        <time>2016-10-11T13:51:50Z</time>
      </trkpt>
      <trkpt lat="43.59297" lon="6.27186">
        <ele>507.23</ele>
        <time>2016-10-11T13:52:04Z</time>
      </trkpt>
      <trkpt lat="43.59299" lon="6.27186">
        <ele>507.23</ele>
        <time>2016-10-11T13:52:06Z</time>
      </trkpt>
      <trkpt lat="43.59306" lon="6.27189">
        <ele>506.75</ele>
        <time>2016-10-11T13:52:13Z</time>
      </trkpt>
      <trkpt lat="43.59311" lon="6.27191">
        <ele>506.75</ele>
        <time>2016-10-11T13:52:18Z</time>
      </trkpt>
      <trkpt lat="43.59323" lon="6.27194">
        <ele>505.79</ele>
        <time>2016-10-11T13:52:30Z</time>
      </trkpt>
      <trkpt lat="43.59339" lon="6.27196">
        <ele>505.79</ele>
        <time>2016-10-11T13:52:45Z</time>
      </trkpt>
      <trkpt lat="43.5935" lon="6.27205">
        <ele>505.31</ele>
        <time>2016-10-11T13:52:59Z</time>
      </trkpt>
      <trkpt lat="43.59351" lon="6.27207">
        <ele>505.31</ele>
        <time>2016-10-11T13:53:01Z</time>
      </trkpt>
      <trkpt lat="43.59363" lon="6.27216">
        <ele>504.83</ele>
        <time>2016-10-11T13:53:14Z</time>
      </trkpt>
      <trkpt lat="43.5937" lon="6.27225">
        <ele>504.35</ele>
        <time>2016-10-11T13:53:27Z</time>
      </trkpt>
      <trkpt lat="43.59372" lon="6.27227">
        <ele>504.35</ele>
        <time>2016-10-11T13:53:30Z</time>
      </trkpt>
      <trkpt lat="43.59377" lon="6.27229">
        <ele>504.35</ele>
        <time>2016-10-11T13:53:35Z</time>
      </trkpt>
      <trkpt lat="43.59386" lon="6.2724">
        <ele>503.39</ele>
        <time>2016-10-11T13:53:48Z</time>
      </trkpt>
      <trkpt lat="43.59394" lon="6.27253">
        <ele>502.43</ele>
        <time>2016-10-11T13:54:02Z</time>
      </trkpt>
      <trkpt lat="43.594" lon="6.27265">
        <ele>501.46</ele>
        <time>2016-10-11T13:54:16Z</time>
      </trkpt>
      <trkpt lat="43.5941" lon="6.27271">
        <ele>501.95</ele>
        <time>2016-10-11T13:54:27Z</time>
      </trkpt>
      <trkpt lat="43.59422" lon="6.27263">
        <ele>502.43</ele>
        <time>2016-10-11T13:54:42Z</time>
      </trkpt>
      <trkpt lat="43.59425" lon="6.27258">
        <ele>502.91</ele>
        <time>2016-10-11T13:54:47Z</time>
      </trkpt>
      <trkpt lat="43.59436" lon="6.27246">
        <ele>504.35</ele>
        <time>2016-10-11T13:55:02Z</time>
      </trkpt>
      <trkpt lat="43.59444" lon="6.2724">
        <ele>504.83</ele>
        <time>2016-10-11T13:55:11Z</time>
      </trkpt>
      <trkpt lat="43.59456" lon="6.27231">
        <ele>505.31</ele>
        <time>2016-10-11T13:55:25Z</time>
      </trkpt>
      <trkpt lat="43.59464" lon="6.27234">
        <ele>504.35</ele>
        <time>2016-10-11T13:55:35Z</time>
      </trkpt>
      <trkpt lat="43.59468" lon="6.27236">
        <ele>504.35</ele>
        <time>2016-10-11T13:55:41Z</time>
      </trkpt>
      <trkpt lat="43.59479" lon="6.27235">
        <ele>504.35</ele>
        <time>2016-10-11T13:55:55Z</time>
      </trkpt>
      <trkpt lat="43.5948" lon="6.27236">
        <ele>504.35</ele>
        <time>2016-10-11T13:55:57Z</time>
      </trkpt>
      <trkpt lat="43.59491" lon="6.27247">
        <ele>504.35</ele>
        <time>2016-10-11T13:56:12Z</time>
      </trkpt>
      <trkpt lat="43.59502" lon="6.27256">
        <ele>504.83</ele>
        <time>2016-10-11T13:56:27Z</time>
      </trkpt>
      <trkpt lat="43.59512" lon="6.27264">
        <ele>505.31</ele>
        <time>2016-10-11T13:56:40Z</time>
      </trkpt>
      <trkpt lat="43.59523" lon="6.2727">
        <ele>505.79</ele>
        <time>2016-10-11T13:56:53Z</time>
      </trkpt>
      <trkpt lat="43.59533" lon="6.27276">
        <ele>506.27</ele>
        <time>2016-10-11T13:57:06Z</time>
      </trkpt>
      <trkpt lat="43.59542" lon="6.2728">
        <ele>506.75</ele>
        <time>2016-10-11T13:57:19Z</time>
      </trkpt>
      <trkpt lat="43.59544" lon="6.27281">
        <ele>506.75</ele>
        <time>2016-10-11T13:57:21Z</time>
      </trkpt>
      <trkpt lat="43.59553" lon="6.27283">
        <ele>507.71</ele>
        <time>2016-10-11T13:57:33Z</time>
      </trkpt>
      <trkpt lat="43.59557" lon="6.27288">
        <ele>508.19</ele>
        <time>2016-10-11T13:57:40Z</time>
      </trkpt>
      <trkpt lat="43.5956" lon="6.27298">
        <ele>507.71</ele>
        <time>2016-10-11T13:57:52Z</time>
      </trkpt>
      <trkpt lat="43.5956" lon="6.27307">
        <ele>507.23</ele>
        <time>2016-10-11T13:58:07Z</time>
      </trkpt>
      <trkpt lat="43.59561" lon="6.27306">
        <ele>507.23</ele>
        <time>2016-10-11T13:58:33Z</time>
      </trkpt>
      <trkpt lat="43.59561" lon="6.27306">
        <ele>507.71</ele>
        <time>2016-10-11T13:58:36Z</time>
      </trkpt>
      <trkpt lat="43.59561" lon="6.27311">
        <ele>507.71</ele>
        <time>2016-10-11T13:58:40Z</time>
      </trkpt>
      <trkpt lat="43.59566" lon="6.27325">
        <ele>508.67</ele>
        <time>2016-10-11T13:58:55Z</time>
      </trkpt>
      <trkpt lat="43.59566" lon="6.2734">
        <ele>509.16</ele>
        <time>2016-10-11T13:59:07Z</time>
      </trkpt>
      <trkpt lat="43.59565" lon="6.27359">
        <ele>509.16</ele>
        <time>2016-10-11T13:59:19Z</time>
      </trkpt>
      <trkpt lat="43.59559" lon="6.27371">
        <ele>509.64</ele>
        <time>2016-10-11T13:59:29Z</time>
      </trkpt>
      <trkpt lat="43.59555" lon="6.27382">
        <ele>510.12</ele>
        <time>2016-10-11T13:59:39Z</time>
      </trkpt>
      <trkpt lat="43.59544" lon="6.27396">
        <ele>511.08</ele>
        <time>2016-10-11T13:59:54Z</time>
      </trkpt>
      <trkpt lat="43.59538" lon="6.27403">
        <ele>511.56</ele>
        <time>2016-10-11T14:00:03Z</time>
      </trkpt>
      <trkpt lat="43.59533" lon="6.27411">
        <ele>512.04</ele>
        <time>2016-10-11T14:00:14Z</time>
      </trkpt>
      <trkpt lat="43.5953" lon="6.27414">
        <ele>512.52</ele>
        <time>2016-10-11T14:00:29Z</time>
      </trkpt>
      <trkpt lat="43.59528" lon="6.27415">
        <ele>512.52</ele>
        <time>2016-10-11T14:00:31Z</time>
      </trkpt>
      <trkpt lat="43.59513" lon="6.27424">
        <ele>512.52</ele>
        <time>2016-10-11T14:00:47Z</time>
      </trkpt>
      <trkpt lat="43.59505" lon="6.27428">
        <ele>512.52</ele>
        <time>2016-10-11T14:01:00Z</time>
      </trkpt>
      <trkpt lat="43.5949" lon="6.27439">
        <ele>511.56</ele>
        <time>2016-10-11T14:01:15Z</time>
      </trkpt>
      <trkpt lat="43.59488" lon="6.27441">
        <ele>511.56</ele>
        <time>2016-10-11T14:01:18Z</time>
      </trkpt>
      <trkpt lat="43.59475" lon="6.27445">
        <ele>511.08</ele>
        <time>2016-10-11T14:01:33Z</time>
      </trkpt>
      <trkpt lat="43.59466" lon="6.27448">
        <ele>511.08</ele>
        <time>2016-10-11T14:01:46Z</time>
      </trkpt>
      <trkpt lat="43.59458" lon="6.27455">
        <ele>511.08</ele>
        <time>2016-10-11T14:01:58Z</time>
      </trkpt>
      <trkpt lat="43.59447" lon="6.27463">
        <ele>511.08</ele>
        <time>2016-10-11T14:02:10Z</time>
      </trkpt>
      <trkpt lat="43.59436" lon="6.27468">
        <ele>510.12</ele>
        <time>2016-10-11T14:02:25Z</time>
      </trkpt>
      <trkpt lat="43.59427" lon="6.27476">
        <ele>509.64</ele>
        <time>2016-10-11T14:02:37Z</time>
      </trkpt>
      <trkpt lat="43.59418" lon="6.27478">
        <ele>508.67</ele>
        <time>2016-10-11T14:02:47Z</time>
      </trkpt>
      <trkpt lat="43.59416" lon="6.27479">
        <ele>508.67</ele>
        <time>2016-10-11T14:02:49Z</time>
      </trkpt>
      <trkpt lat="43.59402" lon="6.27486">
        <ele>508.67</ele>
        <time>2016-10-11T14:03:02Z</time>
      </trkpt>
      <trkpt lat="43.59399" lon="6.27487">
        <ele>508.67</ele>
        <time>2016-10-11T14:03:05Z</time>
      </trkpt>
      <trkpt lat="43.59393" lon="6.27488">
        <ele>508.19</ele>
        <time>2016-10-11T14:03:12Z</time>
      </trkpt>
      <trkpt lat="43.59389" lon="6.2749">
        <ele>508.19</ele>
        <time>2016-10-11T14:03:16Z</time>
      </trkpt>
      <trkpt lat="43.59373" lon="6.27494">
        <ele>508.19</ele>
        <time>2016-10-11T14:03:33Z</time>
      </trkpt>
      <trkpt lat="43.59364" lon="6.27494">
        <ele>508.19</ele>
        <time>2016-10-11T14:03:45Z</time>
      </trkpt>
      <trkpt lat="43.59356" lon="6.27492">
        <ele>508.19</ele>
        <time>2016-10-11T14:03:55Z</time>
      </trkpt>
      <trkpt lat="43.59342" lon="6.27491">
        <ele>509.16</ele>
        <time>2016-10-11T14:04:11Z</time>
      </trkpt>
      <trkpt lat="43.59333" lon="6.27488">
        <ele>510.12</ele>
        <time>2016-10-11T14:04:25Z</time>
      </trkpt>
      <trkpt lat="43.59323" lon="6.2748">
        <ele>510.12</ele>
        <time>2016-10-11T14:04:35Z</time>
      </trkpt>
      <trkpt lat="43.59311" lon="6.27474">
        <ele>510.6</ele>
        <time>2016-10-11T14:04:47Z</time>
      </trkpt>
      <trkpt lat="43.59297" lon="6.27472">
        <ele>511.08</ele>
        <time>2016-10-11T14:05:02Z</time>
      </trkpt>
      <trkpt lat="43.59287" lon="6.27469">
        <ele>512.04</ele>
        <time>2016-10-11T14:05:14Z</time>
      </trkpt>
      <trkpt lat="43.59277" lon="6.27461">
        <ele>512.52</ele>
        <time>2016-10-11T14:05:27Z</time>
      </trkpt>
      <trkpt lat="43.59275" lon="6.27456">
        <ele>512.04</ele>
        <time>2016-10-11T14:05:31Z</time>
      </trkpt>
      <trkpt lat="43.59267" lon="6.27441">
        <ele>511.56</ele>
        <time>2016-10-11T14:05:44Z</time>
      </trkpt>
      <trkpt lat="43.59255" lon="6.2743">
        <ele>510.12</ele>
        <time>2016-10-11T14:05:59Z</time>
      </trkpt>
      <trkpt lat="43.59246" lon="6.27419">
        <ele>508.67</ele>
        <time>2016-10-11T14:06:14Z</time>
      </trkpt>
      <trkpt lat="43.59236" lon="6.27415">
        <ele>507.71</ele>
        <time>2016-10-11T14:06:26Z</time>
      </trkpt>
      <trkpt lat="43.59223" lon="6.2742">
        <ele>507.23</ele>
        <time>2016-10-11T14:06:39Z</time>
      </trkpt>
      <trkpt lat="43.59213" lon="6.27421">
        <ele>506.75</ele>
        <time>2016-10-11T14:06:53Z</time>
      </trkpt>
      <trkpt lat="43.59209" lon="6.27424">
        <ele>507.23</ele>
        <time>2016-10-11T14:06:58Z</time>
      </trkpt>
      <trkpt lat="43.59197" lon="6.27431">
        <ele>506.75</ele>
        <time>2016-10-11T14:07:12Z</time>
      </trkpt>
      <trkpt lat="43.59194" lon="6.27432">
        <ele>507.23</ele>
        <time>2016-10-11T14:07:16Z</time>
      </trkpt>
      <trkpt lat="43.59183" lon="6.27438">
        <ele>506.75</ele>
        <time>2016-10-11T14:07:28Z</time>
      </trkpt>
      <trkpt lat="43.59176" lon="6.27442">
        <ele>506.27</ele>
        <time>2016-10-11T14:07:41Z</time>
      </trkpt>
      <trkpt lat="43.59176" lon="6.27444">
        <ele>506.27</ele>
        <time>2016-10-11T14:08:06Z</time>
      </trkpt>
      <trkpt lat="43.59168" lon="6.27449">
        <ele>505.79</ele>
        <time>2016-10-11T14:08:18Z</time>
      </trkpt>
      <trkpt lat="43.5916" lon="6.2745">
        <ele>504.83</ele>
        <time>2016-10-11T14:08:30Z</time>
      </trkpt>
      <trkpt lat="43.59157" lon="6.27452">
        <ele>503.87</ele>
        <time>2016-10-11T14:08:42Z</time>
      </trkpt>
      <trkpt lat="43.59157" lon="6.27452">
        <ele>504.35</ele>
        <time>2016-10-11T14:09:07Z</time>
      </trkpt>
      <trkpt lat="43.59157" lon="6.27453">
        <ele>504.35</ele>
        <time>2016-10-11T14:09:32Z</time>
      </trkpt>
      <trkpt lat="43.59156" lon="6.27453">
        <ele>504.35</ele>
        <time>2016-10-11T14:09:46Z</time>
      </trkpt>
      <trkpt lat="43.59156" lon="6.27452">
        <ele>504.83</ele>
        <time>2016-10-11T14:10:09Z</time>
      </trkpt>
      <trkpt lat="43.59151" lon="6.27455">
        <ele>503.87</ele>
        <time>2016-10-11T14:10:22Z</time>
      </trkpt>
      <trkpt lat="43.59144" lon="6.2746">
        <ele>502.91</ele>
        <time>2016-10-11T14:10:33Z</time>
      </trkpt>
      <trkpt lat="43.59136" lon="6.27458">
        <ele>500.5</ele>
        <time>2016-10-11T14:10:47Z</time>
      </trkpt>
      <trkpt lat="43.5913" lon="6.27459">
        <ele>499.06</ele>
        <time>2016-10-11T14:11:00Z</time>
      </trkpt>
      <trkpt lat="43.59124" lon="6.27462">
        <ele>497.62</ele>
        <time>2016-10-11T14:11:15Z</time>
      </trkpt>
      <trkpt lat="43.59118" lon="6.27467">
        <ele>496.66</ele>
        <time>2016-10-11T14:11:30Z</time>
      </trkpt>
      <trkpt lat="43.59114" lon="6.27472">
        <ele>496.18</ele>
        <time>2016-10-11T14:11:44Z</time>
      </trkpt>
      <trkpt lat="43.59113" lon="6.27476">
        <ele>496.18</ele>
        <time>2016-10-11T14:11:54Z</time>
      </trkpt>
      <trkpt lat="43.59114" lon="6.27482">
        <ele>497.62</ele>
        <time>2016-10-11T14:12:09Z</time>
      </trkpt>
      <trkpt lat="43.5911" lon="6.27486">
        <ele>496.66</ele>
        <time>2016-10-11T14:12:20Z</time>
      </trkpt>
      <trkpt lat="43.59104" lon="6.2749">
        <ele>494.74</ele>
        <time>2016-10-11T14:12:34Z</time>
      </trkpt>
      <trkpt lat="43.59098" lon="6.27496">
        <ele>492.81</ele>
        <time>2016-10-11T14:12:46Z</time>
      </trkpt>
      <trkpt lat="43.59092" lon="6.27499">
        <ele>491.37</ele>
        <time>2016-10-11T14:13:00Z</time>
      </trkpt>
      <trkpt lat="43.59091" lon="6.27499">
        <ele>491.37</ele>
        <time>2016-10-11T14:13:26Z</time>
      </trkpt>
      <trkpt lat="43.59091" lon="6.27499">
        <ele>490.89</ele>
        <time>2016-10-11T14:13:44Z</time>
      </trkpt>
      <trkpt lat="43.59091" lon="6.27499">
        <ele>490.89</ele>
        <time>2016-10-11T14:14:16Z</time>
      </trkpt>
      <trkpt lat="43.59091" lon="6.27498">
        <ele>490.89</ele>
        <time>2016-10-11T14:14:49Z</time>
      </trkpt>
      <trkpt lat="43.59091" lon="6.27499">
        <ele>490.89</ele>
        <time>2016-10-11T14:15:23Z</time>
      </trkpt>
      <trkpt lat="43.59091" lon="6.27499">
        <ele>491.37</ele>
        <time>2016-10-11T14:15:54Z</time>
      </trkpt>
      <trkpt lat="43.59091" lon="6.27499">
        <ele>491.37</ele>
        <time>2016-10-11T14:16:24Z</time>
      </trkpt>
      <trkpt lat="43.59088" lon="6.27503">
        <ele>490.41</ele>
        <time>2016-10-11T14:16:41Z</time>
      </trkpt>
      <trkpt lat="43.59084" lon="6.27506">
        <ele>488.97</ele>
        <time>2016-10-11T14:16:55Z</time>
      </trkpt>
      <trkpt lat="43.5908" lon="6.27515">
        <ele>487.05</ele>
        <time>2016-10-11T14:17:09Z</time>
      </trkpt>
      <trkpt lat="43.59075" lon="6.27522">
        <ele>485.6</ele>
        <time>2016-10-11T14:17:23Z</time>
      </trkpt>
      <trkpt lat="43.5907" lon="6.2753">
        <ele>483.2</ele>
        <time>2016-10-11T14:17:36Z</time>
      </trkpt>
      <trkpt lat="43.59066" lon="6.27538">
        <ele>481.28</ele>
        <time>2016-10-11T14:17:49Z</time>
      </trkpt>
      <trkpt lat="43.59061" lon="6.27539">
        <ele>479.35</ele>
        <time>2016-10-11T14:18:03Z</time>
      </trkpt>
      <trkpt lat="43.59059" lon="6.27544">
        <ele>478.39</ele>
        <time>2016-10-11T14:18:21Z</time>
      </trkpt>
      <trkpt lat="43.59058" lon="6.27544">
        <ele>478.39</ele>
        <time>2016-10-11T14:18:37Z</time>
      </trkpt>
      <trkpt lat="43.59051" lon="6.27551">
        <ele>476.47</ele>
        <time>2016-10-11T14:18:48Z</time>
      </trkpt>
      <trkpt lat="43.5905" lon="6.27554">
        <ele>476.47</ele>
        <time>2016-10-11T14:18:50Z</time>
      </trkpt>
      <trkpt lat="43.59046" lon="6.2756">
        <ele>475.99</ele>
        <time>2016-10-11T14:18:57Z</time>
      </trkpt>
      <trkpt lat="43.59045" lon="6.27563">
        <ele>475.99</ele>
        <time>2016-10-11T14:19:00Z</time>
      </trkpt>
      <trkpt lat="43.59042" lon="6.27568">
        <ele>475.51</ele>
        <time>2016-10-11T14:19:05Z</time>
      </trkpt>
      <trkpt lat="43.5904" lon="6.27573">
        <ele>475.03</ele>
        <time>2016-10-11T14:19:10Z</time>
      </trkpt>
      <trkpt lat="43.59033" lon="6.27586">
        <ele>475.03</ele>
        <time>2016-10-11T14:19:23Z</time>
      </trkpt>
      <trkpt lat="43.59033" lon="6.27587">
        <ele>474.55</ele>
        <time>2016-10-11T14:19:24Z</time>
      </trkpt>
      <trkpt lat="43.59025" lon="6.27599">
        <ele>474.07</ele>
        <time>2016-10-11T14:19:38Z</time>
      </trkpt>
      <trkpt lat="43.59022" lon="6.27601">
        <ele>474.07</ele>
        <time>2016-10-11T14:19:42Z</time>
      </trkpt>
      <trkpt lat="43.59013" lon="6.276">
        <ele>474.07</ele>
        <time>2016-10-11T14:19:54Z</time>
      </trkpt>
      <trkpt lat="43.59003" lon="6.276">
        <ele>473.59</ele>
        <time>2016-10-11T14:20:06Z</time>
      </trkpt>
      <trkpt lat="43.58992" lon="6.27598">
        <ele>473.59</ele>
        <time>2016-10-11T14:20:20Z</time>
      </trkpt>
      <trkpt lat="43.58979" lon="6.276">
        <ele>473.11</ele>
        <time>2016-10-11T14:20:33Z</time>
      </trkpt>
      <trkpt lat="43.58969" lon="6.27604">
        <ele>473.11</ele>
        <time>2016-10-11T14:20:44Z</time>
      </trkpt>
      <trkpt lat="43.58966" lon="6.27605">
        <ele>473.11</ele>
        <time>2016-10-11T14:21:00Z</time>
      </trkpt>
      <trkpt lat="43.58966" lon="6.27604">
        <ele>473.11</ele>
        <time>2016-10-11T14:21:26Z</time>
      </trkpt>
      <trkpt lat="43.58966" lon="6.27605">
        <ele>473.11</ele>
        <time>2016-10-11T14:21:57Z</time>
      </trkpt>
      <trkpt lat="43.58966" lon="6.27605">
        <ele>473.11</ele>
        <time>2016-10-11T14:22:23Z</time>
      </trkpt>
      <trkpt lat="43.58965" lon="6.27605">
        <ele>472.63</ele>
        <time>2016-10-11T14:22:54Z</time>
      </trkpt>
      <trkpt lat="43.58965" lon="6.27605">
        <ele>473.11</ele>
        <time>2016-10-11T14:23:21Z</time>
      </trkpt>
      <trkpt lat="43.58965" lon="6.27605">
        <ele>473.11</ele>
        <time>2016-10-11T14:23:47Z</time>
      </trkpt>
      <trkpt lat="43.58964" lon="6.27605">
        <ele>473.11</ele>
        <time>2016-10-11T14:23:53Z</time>
      </trkpt>
      <trkpt lat="43.58961" lon="6.27606">
        <ele>473.11</ele>
        <time>2016-10-11T14:23:56Z</time>
      </trkpt>
      <trkpt lat="43.58951" lon="6.27615">
        <ele>472.14</ele>
        <time>2016-10-11T14:24:07Z</time>
      </trkpt>
      <trkpt lat="43.58949" lon="6.27618">
        <ele>472.14</ele>
        <time>2016-10-11T14:24:10Z</time>
      </trkpt>
      <trkpt lat="43.58947" lon="6.27625">
        <ele>471.66</ele>
        <time>2016-10-11T14:24:15Z</time>
      </trkpt>
      <trkpt lat="43.58939" lon="6.27638">
        <ele>471.18</ele>
        <time>2016-10-11T14:24:27Z</time>
      </trkpt>
      <trkpt lat="43.58937" lon="6.27643">
        <ele>471.66</ele>
        <time>2016-10-11T14:24:31Z</time>
      </trkpt>
      <trkpt lat="43.58934" lon="6.2765">
        <ele>471.18</ele>
        <time>2016-10-11T14:24:37Z</time>
      </trkpt>
      <trkpt lat="43.58933" lon="6.27652">
        <ele>470.7</ele>
        <time>2016-10-11T14:24:39Z</time>
      </trkpt>
      <trkpt lat="43.58931" lon="6.27655">
        <ele>470.7</ele>
        <time>2016-10-11T14:24:42Z</time>
      </trkpt>
      <trkpt lat="43.58928" lon="6.27661">
        <ele>470.22</ele>
        <time>2016-10-11T14:24:48Z</time>
      </trkpt>
      <trkpt lat="43.58924" lon="6.27666">
        <ele>469.74</ele>
        <time>2016-10-11T14:24:53Z</time>
      </trkpt>
      <trkpt lat="43.58914" lon="6.27674">
        <ele>469.74</ele>
        <time>2016-10-11T14:25:06Z</time>
      </trkpt>
      <trkpt lat="43.58914" lon="6.27674">
        <ele>469.26</ele>
        <time>2016-10-11T14:25:07Z</time>
      </trkpt>
      <trkpt lat="43.58904" lon="6.27675">
        <ele>468.78</ele>
        <time>2016-10-11T14:25:22Z</time>
      </trkpt>
      <trkpt lat="43.58899" lon="6.27677">
        <ele>468.3</ele>
        <time>2016-10-11T14:25:37Z</time>
      </trkpt>
      <trkpt lat="43.58898" lon="6.27677">
        <ele>468.3</ele>
        <time>2016-10-11T14:25:38Z</time>
      </trkpt>
      <trkpt lat="43.58892" lon="6.27684">
        <ele>466.38</ele>
        <time>2016-10-11T14:25:52Z</time>
      </trkpt>
      <trkpt lat="43.58888" lon="6.27688">
        <ele>465.9</ele>
        <time>2016-10-11T14:26:04Z</time>
      </trkpt>
      <trkpt lat="43.58889" lon="6.27689">
        <ele>465.9</ele>
        <time>2016-10-11T14:26:30Z</time>
      </trkpt>
      <trkpt lat="43.58888" lon="6.27689">
        <ele>466.38</ele>
        <time>2016-10-11T14:26:52Z</time>
      </trkpt>
      <trkpt lat="43.58888" lon="6.27688">
        <ele>465.42</ele>
        <time>2016-10-11T14:27:08Z</time>
      </trkpt>
      <trkpt lat="43.58887" lon="6.27688">
        <ele>464.45</ele>
        <time>2016-10-11T14:27:20Z</time>
      </trkpt>
      <trkpt lat="43.58884" lon="6.27689">
        <ele>465.42</ele>
        <time>2016-10-11T14:27:37Z</time>
      </trkpt>
      <trkpt lat="43.58883" lon="6.2769">
        <ele>464.93</ele>
        <time>2016-10-11T14:27:59Z</time>
      </trkpt>
      <trkpt lat="43.58882" lon="6.2769">
        <ele>464.93</ele>
        <time>2016-10-11T14:28:14Z</time>
      </trkpt>
      <trkpt lat="43.58882" lon="6.27694">
        <ele>465.42</ele>
        <time>2016-10-11T14:28:29Z</time>
      </trkpt>
      <trkpt lat="43.58881" lon="6.27694">
        <ele>465.42</ele>
        <time>2016-10-11T14:28:42Z</time>
      </trkpt>
      <trkpt lat="43.58875" lon="6.27698">
        <ele>465.42</ele>
        <time>2016-10-11T14:28:52Z</time>
      </trkpt>
      <trkpt lat="43.58875" lon="6.27701">
        <ele>465.42</ele>
        <time>2016-10-11T14:28:57Z</time>
      </trkpt>
      <trkpt lat="43.58874" lon="6.27718">
        <ele>464.45</ele>
        <time>2016-10-11T14:29:12Z</time>
      </trkpt>
      <trkpt lat="43.58871" lon="6.27726">
        <ele>463.49</ele>
        <time>2016-10-11T14:29:19Z</time>
      </trkpt>
      <trkpt lat="43.58861" lon="6.27738">
        <ele>463.49</ele>
        <time>2016-10-11T14:29:33Z</time>
      </trkpt>
      <trkpt lat="43.58854" lon="6.27748">
        <ele>462.53</ele>
        <time>2016-10-11T14:29:45Z</time>
      </trkpt>
      <trkpt lat="43.58842" lon="6.27755">
        <ele>461.09</ele>
        <time>2016-10-11T14:29:59Z</time>
      </trkpt>
      <trkpt lat="43.58837" lon="6.27761">
        <ele>460.13</ele>
        <time>2016-10-11T14:30:06Z</time>
      </trkpt>
      <trkpt lat="43.58831" lon="6.27763">
        <ele>459.65</ele>
        <time>2016-10-11T14:30:12Z</time>
      </trkpt>
      <trkpt lat="43.5883" lon="6.27765">
        <ele>460.13</ele>
        <time>2016-10-11T14:30:14Z</time>
      </trkpt>
      <trkpt lat="43.58827" lon="6.27771">
        <ele>460.13</ele>
        <time>2016-10-11T14:30:19Z</time>
      </trkpt>
      <trkpt lat="43.58814" lon="6.27786">
        <ele>459.17</ele>
        <time>2016-10-11T14:30:35Z</time>
      </trkpt>
      <trkpt lat="43.58811" lon="6.27789">
        <ele>459.17</ele>
        <time>2016-10-11T14:30:40Z</time>
      </trkpt>
      <trkpt lat="43.58804" lon="6.2779">
        <ele>458.69</ele>
        <time>2016-10-11T14:30:47Z</time>
      </trkpt>
      <trkpt lat="43.58794" lon="6.278">
        <ele>456.76</ele>
        <time>2016-10-11T14:31:02Z</time>
      </trkpt>
      <trkpt lat="43.58792" lon="6.27806">
        <ele>456.28</ele>
        <time>2016-10-11T14:31:07Z</time>
      </trkpt>
      <trkpt lat="43.58789" lon="6.27811">
        <ele>455.32</ele>
        <time>2016-10-11T14:31:21Z</time>
      </trkpt>
      <trkpt lat="43.58783" lon="6.27816">
        <ele>452.92</ele>
        <time>2016-10-11T14:31:35Z</time>
      </trkpt>
      <trkpt lat="43.58778" lon="6.2782">
        <ele>451.96</ele>
        <time>2016-10-11T14:31:50Z</time>
      </trkpt>
      <trkpt lat="43.58777" lon="6.2782">
        <ele>450.52</ele>
        <time>2016-10-11T14:32:07Z</time>
      </trkpt>
      <trkpt lat="43.58776" lon="6.2782">
        <ele>448.59</ele>
        <time>2016-10-11T14:32:26Z</time>
      </trkpt>
      <trkpt lat="43.58775" lon="6.27819">
        <ele>448.11</ele>
        <time>2016-10-11T14:32:44Z</time>
      </trkpt>
      <trkpt lat="43.58775" lon="6.27824">
        <ele>446.67</ele>
        <time>2016-10-11T14:33:06Z</time>
      </trkpt>
      <trkpt lat="43.58775" lon="6.27827">
        <ele>446.67</ele>
        <time>2016-10-11T14:33:22Z</time>
      </trkpt>
      <trkpt lat="43.58774" lon="6.27834">
        <ele>446.19</ele>
        <time>2016-10-11T14:33:39Z</time>
      </trkpt>
      <trkpt lat="43.58773" lon="6.27837">
        <ele>446.67</ele>
        <time>2016-10-11T14:34:06Z</time>
      </trkpt>
      <trkpt lat="43.58773" lon="6.27838">
        <ele>446.19</ele>
        <time>2016-10-11T14:34:24Z</time>
      </trkpt>
      <trkpt lat="43.5877" lon="6.27839">
        <ele>446.19</ele>
        <time>2016-10-11T14:34:57Z</time>
      </trkpt>
      <trkpt lat="43.58771" lon="6.27839">
        <ele>446.19</ele>
        <time>2016-10-11T14:35:26Z</time>
      </trkpt>
      <trkpt lat="43.58767" lon="6.27843">
        <ele>443.31</ele>
        <time>2016-10-11T14:35:47Z</time>
      </trkpt>
      <trkpt lat="43.58764" lon="6.27849">
        <ele>443.31</ele>
        <time>2016-10-11T14:36:03Z</time>
      </trkpt>
      <trkpt lat="43.58762" lon="6.27852">
        <ele>441.86</ele>
        <time>2016-10-11T14:36:25Z</time>
      </trkpt>
      <trkpt lat="43.58759" lon="6.27857">
        <ele>440.42</ele>
        <time>2016-10-11T14:36:44Z</time>
      </trkpt>
      <trkpt lat="43.58756" lon="6.27848">
        <ele>438.5</ele>
        <time>2016-10-11T14:37:05Z</time>
      </trkpt>
      <trkpt lat="43.58751" lon="6.27839">
        <ele>437.06</ele>
        <time>2016-10-11T14:37:18Z</time>
      </trkpt>
      <trkpt lat="43.58747" lon="6.27826">
        <ele>436.58</ele>
        <time>2016-10-11T14:37:33Z</time>
      </trkpt>
      <trkpt lat="43.58745" lon="6.27809">
        <ele>435.13</ele>
        <time>2016-10-11T14:37:50Z</time>
      </trkpt>
      <trkpt lat="43.58749" lon="6.27794">
        <ele>435.61</ele>
        <time>2016-10-11T14:38:08Z</time>
      </trkpt>
      <trkpt lat="43.58748" lon="6.27789">
        <ele>435.13</ele>
        <time>2016-10-11T14:38:22Z</time>
      </trkpt>
      <trkpt lat="43.58751" lon="6.27777">
        <ele>434.17</ele>
        <time>2016-10-11T14:38:38Z</time>
      </trkpt>
      <trkpt lat="43.58756" lon="6.27762">
        <ele>435.61</ele>
        <time>2016-10-11T14:38:54Z</time>
      </trkpt>
      <trkpt lat="43.58758" lon="6.27745">
        <ele>437.06</ele>
        <time>2016-10-11T14:39:06Z</time>
      </trkpt>
      <trkpt lat="43.58753" lon="6.27728">
        <ele>438.02</ele>
        <time>2016-10-11T14:39:23Z</time>
      </trkpt>
      <trkpt lat="43.58749" lon="6.27713">
        <ele>439.46</ele>
        <time>2016-10-11T14:39:37Z</time>
      </trkpt>
      <trkpt lat="43.58739" lon="6.27701">
        <ele>440.9</ele>
        <time>2016-10-11T14:39:52Z</time>
      </trkpt>
      <trkpt lat="43.58738" lon="6.27696">
        <ele>441.38</ele>
        <time>2016-10-11T14:40:07Z</time>
      </trkpt>
      <trkpt lat="43.58737" lon="6.27692">
        <ele>441.38</ele>
        <time>2016-10-11T14:40:24Z</time>
      </trkpt>
      <trkpt lat="43.58737" lon="6.27681">
        <ele>438.98</ele>
        <time>2016-10-11T14:40:38Z</time>
      </trkpt>
      <trkpt lat="43.58738" lon="6.27671">
        <ele>436.58</ele>
        <time>2016-10-11T14:40:52Z</time>
      </trkpt>
      <trkpt lat="43.58737" lon="6.27662">
        <ele>435.13</ele>
        <time>2016-10-11T14:41:07Z</time>
      </trkpt>
      <trkpt lat="43.58736" lon="6.27661">
        <ele>435.13</ele>
        <time>2016-10-11T14:41:29Z</time>
      </trkpt>
      <trkpt lat="43.58735" lon="6.27661">
        <ele>435.13</ele>
        <time>2016-10-11T14:41:56Z</time>
      </trkpt>
      <trkpt lat="43.58734" lon="6.27661">
        <ele>435.13</ele>
        <time>2016-10-11T14:42:21Z</time>
      </trkpt>
      <trkpt lat="43.58734" lon="6.27665">
        <ele>436.58</ele>
        <time>2016-10-11T14:42:49Z</time>
      </trkpt>
      <trkpt lat="43.58731" lon="6.27676">
        <ele>438.5</ele>
        <time>2016-10-11T14:43:01Z</time>
      </trkpt>
      <trkpt lat="43.58731" lon="6.27682">
        <ele>439.46</ele>
        <time>2016-10-11T14:43:06Z</time>
      </trkpt>
      <trkpt lat="43.58732" lon="6.27684">
        <ele>439.94</ele>
        <time>2016-10-11T14:43:08Z</time>
      </trkpt>
      <trkpt lat="43.58732" lon="6.27692">
        <ele>440.9</ele>
        <time>2016-10-11T14:43:14Z</time>
      </trkpt>
      <trkpt lat="43.58732" lon="6.27697">
        <ele>441.38</ele>
        <time>2016-10-11T14:43:17Z</time>
      </trkpt>
      <trkpt lat="43.58735" lon="6.27703">
        <ele>440.42</ele>
        <time>2016-10-11T14:43:22Z</time>
      </trkpt>
      <trkpt lat="43.5874" lon="6.27709">
        <ele>439.94</ele>
        <time>2016-10-11T14:43:38Z</time>
      </trkpt>
      <trkpt lat="43.5874" lon="6.2771">
        <ele>439.94</ele>
        <time>2016-10-11T14:44:08Z</time>
      </trkpt>
      <trkpt lat="43.58742" lon="6.27708">
        <ele>439.46</ele>
        <time>2016-10-11T14:44:35Z</time>
      </trkpt>
      <trkpt lat="43.58742" lon="6.27708">
        <ele>439.46</ele>
        <time>2016-10-11T14:44:58Z</time>
      </trkpt>
      <trkpt lat="43.58743" lon="6.27708">
        <ele>439.94</ele>
        <time>2016-10-11T14:45:31Z</time>
      </trkpt>
      <trkpt lat="43.58743" lon="6.27709">
        <ele>438.98</ele>
        <time>2016-10-11T14:46:06Z</time>
      </trkpt>
      <trkpt lat="43.58743" lon="6.27709">
        <ele>439.94</ele>
        <time>2016-10-11T14:46:31Z</time>
      </trkpt>
      <trkpt lat="43.58743" lon="6.27709">
        <ele>439.46</ele>
        <time>2016-10-11T14:46:55Z</time>
      </trkpt>
      <trkpt lat="43.58743" lon="6.2771">
        <ele>439.46</ele>
        <time>2016-10-11T14:47:30Z</time>
      </trkpt>
      <trkpt lat="43.58742" lon="6.27707">
        <ele>440.42</ele>
        <time>2016-10-11T14:47:47Z</time>
      </trkpt>
      <trkpt lat="43.58738" lon="6.27697">
        <ele>441.38</ele>
        <time>2016-10-11T14:47:59Z</time>
      </trkpt>
      <trkpt lat="43.58738" lon="6.27695">
        <ele>441.38</ele>
        <time>2016-10-11T14:48:21Z</time>
      </trkpt>
      <trkpt lat="43.58737" lon="6.27696">
        <ele>441.38</ele>
        <time>2016-10-11T14:48:51Z</time>
      </trkpt>
      <trkpt lat="43.58736" lon="6.27695">
        <ele>441.38</ele>
        <time>2016-10-11T14:49:20Z</time>
      </trkpt>
      <trkpt lat="43.58735" lon="6.27695">
        <ele>441.38</ele>
        <time>2016-10-11T14:49:50Z</time>
      </trkpt>
      <trkpt lat="43.58735" lon="6.27694">
        <ele>441.38</ele>
        <time>2016-10-11T14:50:18Z</time>
      </trkpt>
      <trkpt lat="43.58736" lon="6.27694">
        <ele>440.9</ele>
        <time>2016-10-11T14:50:48Z</time>
      </trkpt>
      <trkpt lat="43.58736" lon="6.27691">
        <ele>440.42</ele>
        <time>2016-10-11T14:51:02Z</time>
      </trkpt>
      <trkpt lat="43.58736" lon="6.27683">
        <ele>438.5</ele>
        <time>2016-10-11T14:51:17Z</time>
      </trkpt>
      <trkpt lat="43.58736" lon="6.27674">
        <ele>437.06</ele>
        <time>2016-10-11T14:51:29Z</time>
      </trkpt>
      <trkpt lat="43.58737" lon="6.27666">
        <ele>435.61</ele>
        <time>2016-10-11T14:51:48Z</time>
      </trkpt>
      <trkpt lat="43.58737" lon="6.27663">
        <ele>435.13</ele>
        <time>2016-10-11T14:52:04Z</time>
      </trkpt>
      <trkpt lat="43.58739" lon="6.27659">
        <ele>434.17</ele>
        <time>2016-10-11T14:52:21Z</time>
      </trkpt>
      <trkpt lat="43.58742" lon="6.2765">
        <ele>433.21</ele>
        <time>2016-10-11T14:52:35Z</time>
      </trkpt>
      <trkpt lat="43.58744" lon="6.27639">
        <ele>432.25</ele>
        <time>2016-10-11T14:52:47Z</time>
      </trkpt>
      <trkpt lat="43.58744" lon="6.27627">
        <ele>431.29</ele>
        <time>2016-10-11T14:53:01Z</time>
      </trkpt>
      <trkpt lat="43.58744" lon="6.27616">
        <ele>429.85</ele>
        <time>2016-10-11T14:53:13Z</time>
      </trkpt>
      <trkpt lat="43.58739" lon="6.27605">
        <ele>427.92</ele>
        <time>2016-10-11T14:53:26Z</time>
      </trkpt>
      <trkpt lat="43.58726" lon="6.27606">
        <ele>426</ele>
        <time>2016-10-11T14:53:41Z</time>
      </trkpt>
      <trkpt lat="43.58717" lon="6.27597">
        <ele>425.52</ele>
        <time>2016-10-11T14:53:55Z</time>
      </trkpt>
      <trkpt lat="43.58716" lon="6.27597">
        <ele>425.52</ele>
        <time>2016-10-11T14:54:14Z</time>
      </trkpt>
      <trkpt lat="43.58716" lon="6.27596">
        <ele>425.52</ele>
        <time>2016-10-11T14:54:32Z</time>
      </trkpt>
      <trkpt lat="43.58715" lon="6.27596">
        <ele>425.52</ele>
        <time>2016-10-11T14:54:57Z</time>
      </trkpt>
      <trkpt lat="43.58715" lon="6.27597">
        <ele>425.52</ele>
        <time>2016-10-11T14:55:29Z</time>
      </trkpt>
      <trkpt lat="43.58715" lon="6.27592">
        <ele>425.52</ele>
        <time>2016-10-11T14:55:44Z</time>
      </trkpt>
      <trkpt lat="43.58715" lon="6.27581">
        <ele>426</ele>
        <time>2016-10-11T14:55:52Z</time>
      </trkpt>
      <trkpt lat="43.58715" lon="6.2757">
        <ele>425.52</ele>
        <time>2016-10-11T14:56:01Z</time>
      </trkpt>
      <trkpt lat="43.58715" lon="6.27566">
        <ele>425.52</ele>
        <time>2016-10-11T14:56:04Z</time>
      </trkpt>
      <trkpt lat="43.58714" lon="6.27555">
        <ele>425.04</ele>
        <time>2016-10-11T14:56:12Z</time>
      </trkpt>
      <trkpt lat="43.58711" lon="6.27534">
        <ele>423.12</ele>
        <time>2016-10-11T14:56:27Z</time>
      </trkpt>
      <trkpt lat="43.5871" lon="6.27526">
        <ele>422.64</ele>
        <time>2016-10-11T14:56:33Z</time>
      </trkpt>
      <trkpt lat="43.5871" lon="6.27508">
        <ele>422.16</ele>
        <time>2016-10-11T14:56:44Z</time>
      </trkpt>
      <trkpt lat="43.58713" lon="6.27487">
        <ele>421.19</ele>
        <time>2016-10-11T14:57:00Z</time>
      </trkpt>
      <trkpt lat="43.58714" lon="6.27481">
        <ele>420.71</ele>
        <time>2016-10-11T14:57:05Z</time>
      </trkpt>
      <trkpt lat="43.58719" lon="6.27455">
        <ele>418.79</ele>
        <time>2016-10-11T14:57:23Z</time>
      </trkpt>
      <trkpt lat="43.58719" lon="6.27434">
        <ele>418.31</ele>
        <time>2016-10-11T14:57:38Z</time>
      </trkpt>
      <trkpt lat="43.58718" lon="6.27433">
        <ele>418.31</ele>
        <time>2016-10-11T14:57:54Z</time>
      </trkpt>
      <trkpt lat="43.58719" lon="6.27432">
        <ele>418.31</ele>
        <time>2016-10-11T14:58:11Z</time>
      </trkpt>
      <trkpt lat="43.58718" lon="6.27424">
        <ele>417.83</ele>
        <time>2016-10-11T14:58:22Z</time>
      </trkpt>
      <trkpt lat="43.58711" lon="6.27413">
        <ele>417.83</ele>
        <time>2016-10-11T14:58:35Z</time>
      </trkpt>
      <trkpt lat="43.58702" lon="6.27392">
        <ele>417.35</ele>
        <time>2016-10-11T14:58:50Z</time>
      </trkpt>
      <trkpt lat="43.58704" lon="6.27382">
        <ele>415.43</ele>
        <time>2016-10-11T14:59:05Z</time>
      </trkpt>
      <trkpt lat="43.58701" lon="6.27372">
        <ele>413.5</ele>
        <time>2016-10-11T14:59:20Z</time>
      </trkpt>
      <trkpt lat="43.5869" lon="6.2736">
        <ele>412.54</ele>
        <time>2016-10-11T14:59:34Z</time>
      </trkpt>
      <trkpt lat="43.5868" lon="6.27356">
        <ele>411.58</ele>
        <time>2016-10-11T14:59:46Z</time>
      </trkpt>
      <trkpt lat="43.58675" lon="6.27355">
        <ele>411.58</ele>
        <time>2016-10-11T14:59:50Z</time>
      </trkpt>
      <trkpt lat="43.58662" lon="6.27346">
        <ele>411.1</ele>
        <time>2016-10-11T15:00:07Z</time>
      </trkpt>
      <trkpt lat="43.5865" lon="6.27339">
        <ele>410.62</ele>
        <time>2016-10-11T15:00:22Z</time>
      </trkpt>
      <trkpt lat="43.58641" lon="6.27333">
        <ele>410.14</ele>
        <time>2016-10-11T15:00:34Z</time>
      </trkpt>
      <trkpt lat="43.58637" lon="6.2733">
        <ele>410.14</ele>
        <time>2016-10-11T15:00:45Z</time>
      </trkpt>
      <trkpt lat="43.5863" lon="6.27316">
        <ele>408.22</ele>
        <time>2016-10-11T15:00:58Z</time>
      </trkpt>
      <trkpt lat="43.58624" lon="6.27313">
        <ele>408.7</ele>
        <time>2016-10-11T15:01:19Z</time>
      </trkpt>
      <trkpt lat="43.58624" lon="6.27314">
        <ele>408.22</ele>
        <time>2016-10-11T15:01:45Z</time>
      </trkpt>
      <trkpt lat="43.58624" lon="6.27314">
        <ele>408.22</ele>
        <time>2016-10-11T15:02:18Z</time>
      </trkpt>
      <trkpt lat="43.58625" lon="6.27318">
        <ele>408.22</ele>
        <time>2016-10-11T15:02:41Z</time>
      </trkpt>
      <trkpt lat="43.58626" lon="6.27319">
        <ele>408.7</ele>
        <time>2016-10-11T15:02:54Z</time>
      </trkpt>
      <trkpt lat="43.58626" lon="6.27318">
        <ele>408.7</ele>
        <time>2016-10-11T15:03:25Z</time>
      </trkpt>
      <trkpt lat="43.58626" lon="6.27317">
        <ele>408.7</ele>
        <time>2016-10-11T15:03:52Z</time>
      </trkpt>
      <trkpt lat="43.58626" lon="6.27316">
        <ele>408.7</ele>
        <time>2016-10-11T15:04:21Z</time>
      </trkpt>
      <trkpt lat="43.58626" lon="6.27317">
        <ele>408.7</ele>
        <time>2016-10-11T15:04:55Z</time>
      </trkpt>
      <trkpt lat="43.58626" lon="6.27318">
        <ele>408.7</ele>
        <time>2016-10-11T15:05:16Z</time>
      </trkpt>
      <trkpt lat="43.58634" lon="6.27334">
        <ele>409.66</ele>
        <time>2016-10-11T15:05:30Z</time>
      </trkpt>
      <trkpt lat="43.58638" lon="6.27338">
        <ele>409.66</ele>
        <time>2016-10-11T15:05:44Z</time>
      </trkpt>
      <trkpt lat="43.58637" lon="6.27337">
        <ele>410.14</ele>
        <time>2016-10-11T15:06:01Z</time>
      </trkpt>
      <trkpt lat="43.58635" lon="6.27336">
        <ele>409.66</ele>
        <time>2016-10-11T15:06:07Z</time>
      </trkpt>
      <trkpt lat="43.5863" lon="6.27319">
        <ele>408.7</ele>
        <time>2016-10-11T15:06:20Z</time>
      </trkpt>
      <trkpt lat="43.58625" lon="6.27313">
        <ele>408.22</ele>
        <time>2016-10-11T15:06:27Z</time>
      </trkpt>
      <trkpt lat="43.58614" lon="6.27301">
        <ele>406.77</ele>
        <time>2016-10-11T15:06:41Z</time>
      </trkpt>
      <trkpt lat="43.58613" lon="6.273">
        <ele>406.77</ele>
        <time>2016-10-11T15:06:42Z</time>
      </trkpt>
      <trkpt lat="43.58606" lon="6.27289">
        <ele>406.77</ele>
        <time>2016-10-11T15:06:52Z</time>
      </trkpt>
      <trkpt lat="43.58601" lon="6.27265">
        <ele>405.81</ele>
        <time>2016-10-11T15:07:07Z</time>
      </trkpt>
      <trkpt lat="43.58601" lon="6.27263">
        <ele>405.81</ele>
        <time>2016-10-11T15:07:18Z</time>
      </trkpt>
      <trkpt lat="43.58601" lon="6.27259">
        <ele>405.33</ele>
        <time>2016-10-11T15:07:21Z</time>
      </trkpt>
      <trkpt lat="43.58602" lon="6.2725">
        <ele>405.33</ele>
        <time>2016-10-11T15:07:34Z</time>
      </trkpt>
      <trkpt lat="43.58598" lon="6.27256">
        <ele>404.85</ele>
        <time>2016-10-11T15:07:55Z</time>
      </trkpt>
      <trkpt lat="43.58597" lon="6.27261">
        <ele>405.33</ele>
        <time>2016-10-11T15:07:59Z</time>
      </trkpt>
      <trkpt lat="43.58596" lon="6.27265">
        <ele>405.81</ele>
        <time>2016-10-11T15:08:02Z</time>
      </trkpt>
      <trkpt lat="43.58596" lon="6.27276">
        <ele>406.29</ele>
        <time>2016-10-11T15:08:10Z</time>
      </trkpt>
      <trkpt lat="43.58606" lon="6.27301">
        <ele>406.77</ele>
        <time>2016-10-11T15:08:23Z</time>
      </trkpt>
      <trkpt lat="43.58625" lon="6.27322">
        <ele>408.7</ele>
        <time>2016-10-11T15:08:39Z</time>
      </trkpt>
      <trkpt lat="43.58626" lon="6.27326">
        <ele>409.66</ele>
        <time>2016-10-11T15:08:42Z</time>
      </trkpt>
      <trkpt lat="43.58628" lon="6.27332">
        <ele>410.14</ele>
        <time>2016-10-11T15:08:46Z</time>
      </trkpt>
      <trkpt lat="43.58645" lon="6.27346">
        <ele>411.1</ele>
        <time>2016-10-11T15:09:00Z</time>
      </trkpt>
      <trkpt lat="43.58658" lon="6.27354">
        <ele>411.58</ele>
        <time>2016-10-11T15:09:11Z</time>
      </trkpt>
      <trkpt lat="43.58663" lon="6.27358">
        <ele>411.58</ele>
        <time>2016-10-11T15:09:26Z</time>
      </trkpt>
      <trkpt lat="43.58663" lon="6.27357">
        <ele>411.58</ele>
        <time>2016-10-11T15:09:57Z</time>
      </trkpt>
      <trkpt lat="43.58662" lon="6.27357">
        <ele>411.58</ele>
        <time>2016-10-11T15:10:30Z</time>
      </trkpt>
      <trkpt lat="43.58661" lon="6.27358">
        <ele>411.1</ele>
        <time>2016-10-11T15:11:04Z</time>
      </trkpt>
      <trkpt lat="43.58662" lon="6.27358">
        <ele>411.58</ele>
        <time>2016-10-11T15:11:31Z</time>
      </trkpt>
      <trkpt lat="43.58661" lon="6.27357">
        <ele>412.06</ele>
        <time>2016-10-11T15:11:59Z</time>
      </trkpt>
      <trkpt lat="43.58661" lon="6.27353">
        <ele>412.06</ele>
        <time>2016-10-11T15:12:25Z</time>
      </trkpt>
      <trkpt lat="43.58654" lon="6.27344">
        <ele>411.1</ele>
        <time>2016-10-11T15:12:41Z</time>
      </trkpt>
      <trkpt lat="43.58648" lon="6.27335">
        <ele>411.1</ele>
        <time>2016-10-11T15:12:58Z</time>
      </trkpt>
      <trkpt lat="43.58637" lon="6.27329">
        <ele>410.62</ele>
        <time>2016-10-11T15:13:13Z</time>
      </trkpt>
      <trkpt lat="43.58633" lon="6.27322">
        <ele>410.14</ele>
        <time>2016-10-11T15:13:28Z</time>
      </trkpt>
      <trkpt lat="43.58627" lon="6.27309">
        <ele>408.7</ele>
        <time>2016-10-11T15:13:42Z</time>
      </trkpt>
      <trkpt lat="43.58619" lon="6.27304">
        <ele>408.22</ele>
        <time>2016-10-11T15:13:55Z</time>
      </trkpt>
      <trkpt lat="43.58613" lon="6.27297">
        <ele>407.26</ele>
        <time>2016-10-11T15:14:10Z</time>
      </trkpt>
      <trkpt lat="43.58609" lon="6.27289">
        <ele>407.26</ele>
        <time>2016-10-11T15:14:25Z</time>
      </trkpt>
      <trkpt lat="43.58606" lon="6.27281">
        <ele>407.26</ele>
        <time>2016-10-11T15:14:38Z</time>
      </trkpt>
      <trkpt lat="43.58606" lon="6.27282">
        <ele>407.26</ele>
        <time>2016-10-11T15:14:45Z</time>
      </trkpt>
      <trkpt lat="43.58606" lon="6.27285">
        <ele>407.26</ele>
        <time>2016-10-11T15:14:48Z</time>
      </trkpt>
      <trkpt lat="43.58606" lon="6.27291">
        <ele>407.74</ele>
        <time>2016-10-11T15:14:52Z</time>
      </trkpt>
      <trkpt lat="43.58609" lon="6.27304">
        <ele>407.26</ele>
        <time>2016-10-11T15:15:07Z</time>
      </trkpt>
      <trkpt lat="43.58609" lon="6.27303">
        <ele>407.74</ele>
        <time>2016-10-11T15:15:39Z</time>
      </trkpt>
      <trkpt lat="43.5861" lon="6.27301">
        <ele>407.74</ele>
        <time>2016-10-11T15:16:16Z</time>
      </trkpt>
      <trkpt lat="43.5861" lon="6.273">
        <ele>407.74</ele>
        <time>2016-10-11T15:16:48Z</time>
      </trkpt>
      <trkpt lat="43.5861" lon="6.273">
        <ele>407.74</ele>
        <time>2016-10-11T15:17:15Z</time>
      </trkpt>
      <trkpt lat="43.5861" lon="6.27301">
        <ele>407.74</ele>
        <time>2016-10-11T15:17:53Z</time>
      </trkpt>
      <trkpt lat="43.5861" lon="6.27301">
        <ele>408.22</ele>
        <time>2016-10-11T15:18:34Z</time>
      </trkpt>
      <trkpt lat="43.58609" lon="6.27301">
        <ele>407.74</ele>
        <time>2016-10-11T15:19:09Z</time>
      </trkpt>
      <trkpt lat="43.58609" lon="6.27301">
        <ele>408.22</ele>
        <time>2016-10-11T15:19:42Z</time>
      </trkpt>
      <trkpt lat="43.5861" lon="6.273">
        <ele>407.74</ele>
        <time>2016-10-11T15:19:48Z</time>
      </trkpt>
      <trkpt lat="43.58608" lon="6.27296">
        <ele>407.74</ele>
        <time>2016-10-11T15:19:58Z</time>
      </trkpt>
      <trkpt lat="43.58603" lon="6.27282">
        <ele>407.74</ele>
        <time>2016-10-11T15:20:15Z</time>
      </trkpt>
      <trkpt lat="43.58602" lon="6.27266">
        <ele>406.77</ele>
        <time>2016-10-11T15:20:28Z</time>
      </trkpt>
      <trkpt lat="43.58602" lon="6.27261">
        <ele>406.29</ele>
        <time>2016-10-11T15:20:32Z</time>
      </trkpt>
      <trkpt lat="43.58599" lon="6.27246">
        <ele>405.81</ele>
        <time>2016-10-11T15:20:46Z</time>
      </trkpt>
      <trkpt lat="43.58598" lon="6.27238">
        <ele>405.33</ele>
        <time>2016-10-11T15:20:52Z</time>
      </trkpt>
      <trkpt lat="43.5859" lon="6.27227">
        <ele>404.85</ele>
        <time>2016-10-11T15:21:06Z</time>
      </trkpt>
      <trkpt lat="43.58589" lon="6.27226">
        <ele>404.85</ele>
        <time>2016-10-11T15:21:12Z</time>
      </trkpt>
      <trkpt lat="43.58579" lon="6.2722">
        <ele>404.85</ele>
        <time>2016-10-11T15:21:26Z</time>
      </trkpt>
      <trkpt lat="43.58573" lon="6.2722">
        <ele>404.85</ele>
        <time>2016-10-11T15:21:38Z</time>
      </trkpt>
      <trkpt lat="43.58578" lon="6.27227">
        <ele>404.85</ele>
        <time>2016-10-11T15:21:44Z</time>
      </trkpt>
      <trkpt lat="43.58592" lon="6.27229">
        <ele>404.37</ele>
        <time>2016-10-11T15:21:53Z</time>
      </trkpt>
      <trkpt lat="43.58592" lon="6.27208">
        <ele>402.93</ele>
        <time>2016-10-11T15:22:02Z</time>
      </trkpt>
      <trkpt lat="43.58588" lon="6.27184">
        <ele>401.97</ele>
        <time>2016-10-11T15:22:15Z</time>
      </trkpt>
      <trkpt lat="43.58587" lon="6.27179">
        <ele>401.97</ele>
        <time>2016-10-11T15:22:28Z</time>
      </trkpt>
      <trkpt lat="43.58587" lon="6.27179">
        <ele>401.97</ele>
        <time>2016-10-11T15:22:35Z</time>
      </trkpt>
      <trkpt lat="43.58577" lon="6.27188">
        <ele>402.45</ele>
        <time>2016-10-11T15:22:47Z</time>
      </trkpt>
      <trkpt lat="43.58577" lon="6.27188">
        <ele>402.45</ele>
        <time>2016-10-11T15:22:48Z</time>
      </trkpt>
      <trkpt lat="43.58573" lon="6.2719">
        <ele>402.93</ele>
        <time>2016-10-11T15:22:51Z</time>
      </trkpt>
      <trkpt lat="43.58567" lon="6.27194">
        <ele>402.93</ele>
        <time>2016-10-11T15:22:56Z</time>
      </trkpt>
      <trkpt lat="43.58545" lon="6.27206">
        <ele>404.37</ele>
        <time>2016-10-11T15:23:11Z</time>
      </trkpt>
      <trkpt lat="43.58533" lon="6.27227">
        <ele>405.33</ele>
        <time>2016-10-11T15:23:24Z</time>
      </trkpt>
      <trkpt lat="43.58531" lon="6.27251">
        <ele>406.29</ele>
        <time>2016-10-11T15:23:39Z</time>
      </trkpt>
      <trkpt lat="43.58532" lon="6.27252">
        <ele>405.81</ele>
        <time>2016-10-11T15:24:16Z</time>
      </trkpt>
      <trkpt lat="43.58531" lon="6.27253">
        <ele>405.81</ele>
        <time>2016-10-11T15:24:46Z</time>
      </trkpt>
      <trkpt lat="43.58532" lon="6.27252">
        <ele>405.33</ele>
        <time>2016-10-11T15:25:05Z</time>
      </trkpt>
      <trkpt lat="43.58533" lon="6.27252">
        <ele>405.33</ele>
        <time>2016-10-11T15:25:33Z</time>
      </trkpt>
      <trkpt lat="43.58533" lon="6.27252">
        <ele>405.33</ele>
        <time>2016-10-11T15:25:43Z</time>
      </trkpt>
      <trkpt lat="43.58532" lon="6.27249">
        <ele>405.33</ele>
        <time>2016-10-11T15:25:45Z</time>
      </trkpt>
      <trkpt lat="43.58532" lon="6.27242">
        <ele>404.85</ele>
        <time>2016-10-11T15:25:50Z</time>
      </trkpt>
      <trkpt lat="43.58535" lon="6.27241">
        <ele>404.37</ele>
        <time>2016-10-11T15:25:53Z</time>
      </trkpt>
      <trkpt lat="43.58544" lon="6.27238">
        <ele>404.37</ele>
        <time>2016-10-11T15:26:00Z</time>
      </trkpt>
      <trkpt lat="43.58565" lon="6.27236">
        <ele>403.41</ele>
        <time>2016-10-11T15:26:17Z</time>
      </trkpt>
      <trkpt lat="43.58584" lon="6.27237">
        <ele>403.41</ele>
        <time>2016-10-11T15:26:31Z</time>
      </trkpt>
      <trkpt lat="43.58588" lon="6.27236">
        <ele>403.41</ele>
        <time>2016-10-11T15:26:34Z</time>
      </trkpt>
      <trkpt lat="43.5859" lon="6.27208">
        <ele>401.97</ele>
        <time>2016-10-11T15:26:47Z</time>
      </trkpt>
      <trkpt lat="43.58589" lon="6.27201">
        <ele>401.49</ele>
        <time>2016-10-11T15:26:51Z</time>
      </trkpt>
      <trkpt lat="43.58591" lon="6.27187">
        <ele>401.01</ele>
        <time>2016-10-11T15:26:59Z</time>
      </trkpt>
      <trkpt lat="43.58585" lon="6.27163">
        <ele>400.05</ele>
        <time>2016-10-11T15:27:13Z</time>
      </trkpt>
      <trkpt lat="43.58586" lon="6.27146">
        <ele>399.08</ele>
        <time>2016-10-11T15:27:27Z</time>
      </trkpt>
      <trkpt lat="43.58587" lon="6.27143">
        <ele>399.08</ele>
        <time>2016-10-11T15:27:30Z</time>
      </trkpt>
      <trkpt lat="43.58589" lon="6.27124">
        <ele>398.12</ele>
        <time>2016-10-11T15:27:42Z</time>
      </trkpt>
      <trkpt lat="43.58589" lon="6.27122">
        <ele>398.12</ele>
        <time>2016-10-11T15:27:43Z</time>
      </trkpt>
      <trkpt lat="43.5859" lon="6.27111">
        <ele>397.64</ele>
        <time>2016-10-11T15:27:49Z</time>
      </trkpt>
      <trkpt lat="43.58592" lon="6.27099">
        <ele>397.64</ele>
        <time>2016-10-11T15:27:55Z</time>
      </trkpt>
      <trkpt lat="43.58591" lon="6.27086">
        <ele>397.16</ele>
        <time>2016-10-11T15:28:02Z</time>
      </trkpt>
      <trkpt lat="43.58591" lon="6.27072">
        <ele>395.72</ele>
        <time>2016-10-11T15:28:11Z</time>
      </trkpt>
      <trkpt lat="43.58596" lon="6.27056">
        <ele>393.32</ele>
        <time>2016-10-11T15:28:26Z</time>
      </trkpt>
      <trkpt lat="43.58594" lon="6.27044">
        <ele>391.39</ele>
        <time>2016-10-11T15:28:39Z</time>
      </trkpt>
      <trkpt lat="43.58594" lon="6.27044">
        <ele>390.43</ele>
        <time>2016-10-11T15:28:47Z</time>
      </trkpt>
      <trkpt lat="43.58594" lon="6.27042">
        <ele>390.43</ele>
        <time>2016-10-11T15:29:00Z</time>
      </trkpt>
      <trkpt lat="43.5859" lon="6.27036">
        <ele>388.99</ele>
        <time>2016-10-11T15:29:13Z</time>
      </trkpt>
      <trkpt lat="43.58584" lon="6.27028">
        <ele>387.07</ele>
        <time>2016-10-11T15:29:26Z</time>
      </trkpt>
      <trkpt lat="43.58579" lon="6.27019">
        <ele>385.63</ele>
        <time>2016-10-11T15:29:41Z</time>
      </trkpt>
      <trkpt lat="43.58579" lon="6.27009">
        <ele>384.18</ele>
        <time>2016-10-11T15:29:58Z</time>
      </trkpt>
      <trkpt lat="43.5858" lon="6.26994">
        <ele>383.22</ele>
        <time>2016-10-11T15:30:12Z</time>
      </trkpt>
      <trkpt lat="43.58575" lon="6.26979">
        <ele>381.78</ele>
        <time>2016-10-11T15:30:26Z</time>
      </trkpt>
      <trkpt lat="43.58575" lon="6.26977">
        <ele>381.78</ele>
        <time>2016-10-11T15:30:27Z</time>
      </trkpt>
      <trkpt lat="43.58569" lon="6.26972">
        <ele>380.82</ele>
        <time>2016-10-11T15:30:37Z</time>
      </trkpt>
      <trkpt lat="43.5857" lon="6.2697">
        <ele>379.38</ele>
        <time>2016-10-11T15:30:49Z</time>
      </trkpt>
      <trkpt lat="43.58568" lon="6.2697">
        <ele>378.9</ele>
        <time>2016-10-11T15:31:09Z</time>
      </trkpt>
      <trkpt lat="43.58569" lon="6.26967">
        <ele>377.94</ele>
        <time>2016-10-11T15:31:24Z</time>
      </trkpt>
      <trkpt lat="43.58569" lon="6.26963">
        <ele>376.97</ele>
        <time>2016-10-11T15:31:40Z</time>
      </trkpt>
      <trkpt lat="43.58568" lon="6.26959">
        <ele>375.53</ele>
        <time>2016-10-11T15:31:54Z</time>
      </trkpt>
      <trkpt lat="43.58565" lon="6.26952">
        <ele>375.05</ele>
        <time>2016-10-11T15:32:07Z</time>
      </trkpt>
      <trkpt lat="43.58563" lon="6.26943">
        <ele>374.09</ele>
        <time>2016-10-11T15:32:21Z</time>
      </trkpt>
      <trkpt lat="43.58561" lon="6.26938">
        <ele>371.69</ele>
        <time>2016-10-11T15:32:37Z</time>
      </trkpt>
      <trkpt lat="43.58559" lon="6.26937">
        <ele>371.21</ele>
        <time>2016-10-11T15:32:53Z</time>
      </trkpt>
      <trkpt lat="43.58556" lon="6.26936">
        <ele>371.21</ele>
        <time>2016-10-11T15:32:58Z</time>
      </trkpt>
      <trkpt lat="43.58549" lon="6.26935">
        <ele>370.73</ele>
        <time>2016-10-11T15:33:11Z</time>
      </trkpt>
      <trkpt lat="43.58548" lon="6.26935">
        <ele>370.73</ele>
        <time>2016-10-11T15:33:33Z</time>
      </trkpt>
      <trkpt lat="43.58539" lon="6.26933">
        <ele>370.24</ele>
        <time>2016-10-11T15:33:42Z</time>
      </trkpt>
      <trkpt lat="43.58536" lon="6.26932">
        <ele>370.24</ele>
        <time>2016-10-11T15:33:45Z</time>
      </trkpt>
      <trkpt lat="43.58529" lon="6.2693">
        <ele>370.24</ele>
        <time>2016-10-11T15:33:50Z</time>
      </trkpt>
      <trkpt lat="43.58513" lon="6.26925">
        <ele>369.76</ele>
        <time>2016-10-11T15:34:04Z</time>
      </trkpt>
      <trkpt lat="43.58499" lon="6.26921">
        <ele>369.28</ele>
        <time>2016-10-11T15:34:17Z</time>
      </trkpt>
      <trkpt lat="43.58487" lon="6.26916">
        <ele>368.8</ele>
        <time>2016-10-11T15:34:27Z</time>
      </trkpt>
      <trkpt lat="43.58474" lon="6.26907">
        <ele>368.32</ele>
        <time>2016-10-11T15:34:40Z</time>
      </trkpt>
      <trkpt lat="43.58471" lon="6.26906">
        <ele>368.8</ele>
        <time>2016-10-11T15:34:43Z</time>
      </trkpt>
      <trkpt lat="43.58465" lon="6.26903">
        <ele>368.32</ele>
        <time>2016-10-11T15:34:48Z</time>
      </trkpt>
      <trkpt lat="43.5846" lon="6.26901">
        <ele>368.32</ele>
        <time>2016-10-11T15:34:53Z</time>
      </trkpt>
      <trkpt lat="43.58454" lon="6.26898">
        <ele>367.84</ele>
        <time>2016-10-11T15:34:59Z</time>
      </trkpt>
      <trkpt lat="43.58448" lon="6.26903">
        <ele>366.88</ele>
        <time>2016-10-11T15:35:06Z</time>
      </trkpt>
      <trkpt lat="43.58444" lon="6.26904">
        <ele>366.4</ele>
        <time>2016-10-11T15:35:10Z</time>
      </trkpt>
      <trkpt lat="43.58439" lon="6.26906">
        <ele>365.44</ele>
        <time>2016-10-11T15:35:17Z</time>
      </trkpt>
      <trkpt lat="43.58435" lon="6.26907">
        <ele>364.96</ele>
        <time>2016-10-11T15:35:21Z</time>
      </trkpt>
      <trkpt lat="43.58418" lon="6.26912">
        <ele>363.04</ele>
        <time>2016-10-11T15:35:36Z</time>
      </trkpt>
      <trkpt lat="43.58411" lon="6.26915">
        <ele>362.07</ele>
        <time>2016-10-11T15:35:42Z</time>
      </trkpt>
      <trkpt lat="43.58403" lon="6.2692">
        <ele>361.59</ele>
        <time>2016-10-11T15:35:50Z</time>
      </trkpt>
      <trkpt lat="43.58393" lon="6.26936">
        <ele>359.67</ele>
        <time>2016-10-11T15:36:05Z</time>
      </trkpt>
      <trkpt lat="43.58388" lon="6.26944">
        <ele>359.19</ele>
        <time>2016-10-11T15:36:13Z</time>
      </trkpt>
      <trkpt lat="43.58383" lon="6.26946">
        <ele>359.19</ele>
        <time>2016-10-11T15:36:18Z</time>
      </trkpt>
      <trkpt lat="43.58371" lon="6.26951">
        <ele>358.71</ele>
        <time>2016-10-11T15:36:29Z</time>
      </trkpt>
      <trkpt lat="43.58362" lon="6.26954">
        <ele>357.27</ele>
        <time>2016-10-11T15:36:37Z</time>
      </trkpt>
      <trkpt lat="43.58359" lon="6.26959">
        <ele>357.27</ele>
        <time>2016-10-11T15:36:42Z</time>
      </trkpt>
      <trkpt lat="43.58357" lon="6.26961">
        <ele>357.27</ele>
        <time>2016-10-11T15:36:44Z</time>
      </trkpt>
      <trkpt lat="43.58354" lon="6.26968">
        <ele>356.31</ele>
        <time>2016-10-11T15:36:50Z</time>
      </trkpt>
      <trkpt lat="43.58356" lon="6.26993">
        <ele>355.83</ele>
        <time>2016-10-11T15:37:05Z</time>
      </trkpt>
      <trkpt lat="43.58357" lon="6.26995">
        <ele>355.34</ele>
        <time>2016-10-11T15:37:07Z</time>
      </trkpt>
      <trkpt lat="43.58361" lon="6.27013">
        <ele>354.86</ele>
        <time>2016-10-11T15:37:20Z</time>
      </trkpt>
      <trkpt lat="43.58365" lon="6.27029">
        <ele>354.86</ele>
        <time>2016-10-11T15:37:31Z</time>
      </trkpt>
      <trkpt lat="43.58368" lon="6.27044">
        <ele>354.38</ele>
        <time>2016-10-11T15:37:43Z</time>
      </trkpt>
      <trkpt lat="43.58374" lon="6.27062">
        <ele>353.42</ele>
        <time>2016-10-11T15:37:56Z</time>
      </trkpt>
      <trkpt lat="43.58379" lon="6.27077">
        <ele>352.94</ele>
        <time>2016-10-11T15:38:08Z</time>
      </trkpt>
      <trkpt lat="43.5838" lon="6.27085">
        <ele>352.94</ele>
        <time>2016-10-11T15:38:14Z</time>
      </trkpt>
      <trkpt lat="43.58383" lon="6.27095">
        <ele>352.46</ele>
        <time>2016-10-11T15:38:29Z</time>
      </trkpt>
      <trkpt lat="43.58382" lon="6.27096">
        <ele>352.46</ele>
        <time>2016-10-11T15:38:50Z</time>
      </trkpt>
      <trkpt lat="43.58383" lon="6.27096">
        <ele>352.46</ele>
        <time>2016-10-11T15:39:10Z</time>
      </trkpt>
      <trkpt lat="43.58375" lon="6.27094">
        <ele>351.98</ele>
        <time>2016-10-11T15:39:18Z</time>
      </trkpt>
      <trkpt lat="43.58373" lon="6.27091">
        <ele>351.02</ele>
        <time>2016-10-11T15:39:21Z</time>
      </trkpt>
      <trkpt lat="43.58368" lon="6.27079">
        <ele>348.62</ele>
        <time>2016-10-11T15:39:30Z</time>
      </trkpt>
      <trkpt lat="43.58366" lon="6.27078">
        <ele>348.13</ele>
        <time>2016-10-11T15:39:32Z</time>
      </trkpt>
      <trkpt lat="43.58359" lon="6.27079">
        <ele>347.17</ele>
        <time>2016-10-11T15:39:37Z</time>
      </trkpt>
      <trkpt lat="43.58357" lon="6.2708">
        <ele>346.69</ele>
        <time>2016-10-11T15:39:39Z</time>
      </trkpt>
      <trkpt lat="43.58354" lon="6.27081">
        <ele>346.21</ele>
        <time>2016-10-11T15:39:41Z</time>
      </trkpt>
      <trkpt lat="43.5835" lon="6.27085">
        <ele>345.25</ele>
        <time>2016-10-11T15:39:48Z</time>
      </trkpt>
      <trkpt lat="43.58345" lon="6.27086">
        <ele>344.77</ele>
        <time>2016-10-11T15:39:53Z</time>
      </trkpt>
      <trkpt lat="43.58328" lon="6.27088">
        <ele>342.37</ele>
        <time>2016-10-11T15:40:08Z</time>
      </trkpt>
      <trkpt lat="43.58326" lon="6.27087">
        <ele>342.37</ele>
        <time>2016-10-11T15:40:10Z</time>
      </trkpt>
      <trkpt lat="43.58315" lon="6.27089">
        <ele>340.44</ele>
        <time>2016-10-11T15:40:22Z</time>
      </trkpt>
      <trkpt lat="43.58308" lon="6.27091">
        <ele>339.96</ele>
        <time>2016-10-11T15:40:27Z</time>
      </trkpt>
      <trkpt lat="43.58298" lon="6.2709">
        <ele>339.48</ele>
        <time>2016-10-11T15:40:33Z</time>
      </trkpt>
      <trkpt lat="43.58294" lon="6.27091">
        <ele>339</ele>
        <time>2016-10-11T15:40:36Z</time>
      </trkpt>
      <trkpt lat="43.5829" lon="6.2709">
        <ele>339.48</ele>
        <time>2016-10-11T15:40:39Z</time>
      </trkpt>
      <trkpt lat="43.58284" lon="6.27092">
        <ele>338.04</ele>
        <time>2016-10-11T15:40:43Z</time>
      </trkpt>
      <trkpt lat="43.58274" lon="6.27096">
        <ele>336.6</ele>
        <time>2016-10-11T15:40:52Z</time>
      </trkpt>
      <trkpt lat="43.58269" lon="6.271">
        <ele>335.64</ele>
        <time>2016-10-11T15:40:58Z</time>
      </trkpt>
      <trkpt lat="43.58258" lon="6.27103">
        <ele>334.2</ele>
        <time>2016-10-11T15:41:08Z</time>
      </trkpt>
      <trkpt lat="43.58247" lon="6.27103">
        <ele>333.71</ele>
        <time>2016-10-11T15:41:17Z</time>
      </trkpt>
      <trkpt lat="43.58228" lon="6.27106">
        <ele>331.31</ele>
        <time>2016-10-11T15:41:33Z</time>
      </trkpt>
      <trkpt lat="43.5822" lon="6.27108">
        <ele>330.83</ele>
        <time>2016-10-11T15:41:39Z</time>
      </trkpt>
      <trkpt lat="43.58208" lon="6.27112">
        <ele>329.87</ele>
        <time>2016-10-11T15:41:52Z</time>
      </trkpt>
      <trkpt lat="43.58197" lon="6.27113">
        <ele>328.91</ele>
        <time>2016-10-11T15:42:03Z</time>
      </trkpt>
      <trkpt lat="43.58183" lon="6.27116">
        <ele>328.43</ele>
        <time>2016-10-11T15:42:16Z</time>
      </trkpt>
      <trkpt lat="43.58169" lon="6.27121">
        <ele>328.43</ele>
        <time>2016-10-11T15:42:29Z</time>
      </trkpt>
      <trkpt lat="43.58156" lon="6.27127">
        <ele>327.47</ele>
        <time>2016-10-11T15:42:43Z</time>
      </trkpt>
      <trkpt lat="43.5814" lon="6.27132">
        <ele>326.5</ele>
        <time>2016-10-11T15:42:59Z</time>
      </trkpt>
      <trkpt lat="43.58135" lon="6.27131">
        <ele>324.58</ele>
        <time>2016-10-11T15:43:12Z</time>
      </trkpt>
      <trkpt lat="43.58135" lon="6.27127">
        <ele>324.58</ele>
        <time>2016-10-11T15:43:21Z</time>
      </trkpt>
      <trkpt lat="43.58133" lon="6.27108">
        <ele>325.54</ele>
        <time>2016-10-11T15:43:35Z</time>
      </trkpt>
      <trkpt lat="43.58128" lon="6.27091">
        <ele>326.5</ele>
        <time>2016-10-11T15:43:48Z</time>
      </trkpt>
      <trkpt lat="43.58122" lon="6.27073">
        <ele>327.47</ele>
        <time>2016-10-11T15:44:02Z</time>
      </trkpt>
      <trkpt lat="43.58118" lon="6.27054">
        <ele>328.91</ele>
        <time>2016-10-11T15:44:16Z</time>
      </trkpt>
      <trkpt lat="43.58115" lon="6.27042">
        <ele>329.39</ele>
        <time>2016-10-11T15:44:29Z</time>
      </trkpt>
      <trkpt lat="43.58115" lon="6.27042">
        <ele>330.83</ele>
        <time>2016-10-11T15:44:46Z</time>
      </trkpt>
      <trkpt lat="43.58115" lon="6.27042">
        <ele>326.02</ele>
        <time>2016-10-11T15:45:07Z</time>
      </trkpt>
      <trkpt lat="43.58115" lon="6.27042">
        <ele>332.75</ele>
        <time>2016-10-11T15:45:08Z</time>
      </trkpt>
      <trkpt lat="43.58114" lon="6.27042">
        <ele>329.39</ele>
        <time>2016-10-11T15:45:15Z</time>
      </trkpt>
      <trkpt lat="43.58114" lon="6.27042">
        <ele>327.95</ele>
        <time>2016-10-11T15:45:28Z</time>
      </trkpt>
    </trkseg>
  </trk>
</gpx>